<?xml version="1.0" encoding="UTF-8" standalone="no" ?>
<gpx xmlns="http://www.topografix.com/GPX/1/1" xmlns:xsi="http://www.w3.org/2001/XMLSchema-instance" xsi:schemaLocation="http://www.topografix.com/GPX/1/1 http://www.topografix.com/GPX/1/1/gpx.xsd" version="1.1" creator="VisuGPX - https://www.visugpx.com">
  <metadata>
    <name>Cime Negre, depuis Peone</name>
    <desc><![CDATA[Cime Negre, depuis Peone
En boucle (Peone, col de Crous, Cime Negre, Col de Crousette]]></desc>
  </metadata>
  <trk>
    <name><![CDATA[2017-10-15 10:59]]></name>
    <desc><![CDATA[<p>Heure de départ: 10/15/2017 10:59<br/>Heure d'arrivée: 10/15/2017 18:18<br/>Distance: 15,8 km (07:19)<br/>Temps déplacement: 04:43<br/>Vitesse moyenne: 2,16 km/h<br/>Vitesse moyenne mouv.: 3,35 km/h<br/>Vitesse Max.: 8,5 km/h<br/>Altitude minimale: 1359 m<br/>Altitude maximale: 2567 m<br/>Vitesse de montée: 402,5 m/h<br/>Vitesse de descente: -370,2 m/h<br/>Gain d'altitude: 1403 m<br/>Perte d'altitude: -1403 m<br/>Temps de montée: 03:29<br/>Temps de descente: 03:47<br/></p><hr align="center" width="480" style="height: 2px; width: 517px"/>]]></desc>
    <trkseg>
      <trkpt lat="44.14197" lon="6.90549">
        <ele>1462.55</ele>
        <time>2017-10-15T08:59:02Z</time>
      </trkpt>
      <trkpt lat="44.14213" lon="6.90536">
        <ele>1476.25</ele>
        <time>2017-10-15T09:02:44Z</time>
      </trkpt>
      <trkpt lat="44.1422" lon="6.90513">
        <ele>1475.26</ele>
        <time>2017-10-15T09:03:03Z</time>
      </trkpt>
      <trkpt lat="44.14238" lon="6.90516">
        <ele>1470.96</ele>
        <time>2017-10-15T09:03:14Z</time>
      </trkpt>
      <trkpt lat="44.14255" lon="6.90506">
        <ele>1473.46</ele>
        <time>2017-10-15T09:03:31Z</time>
      </trkpt>
      <trkpt lat="44.14274" lon="6.905">
        <ele>1475.94</ele>
        <time>2017-10-15T09:03:51Z</time>
      </trkpt>
      <trkpt lat="44.14273" lon="6.90473">
        <ele>1473.65</ele>
        <time>2017-10-15T09:04:11Z</time>
      </trkpt>
      <trkpt lat="44.14281" lon="6.9045">
        <ele>1476.27</ele>
        <time>2017-10-15T09:04:25Z</time>
      </trkpt>
      <trkpt lat="44.143" lon="6.90458">
        <ele>1473.8</ele>
        <time>2017-10-15T09:04:32Z</time>
      </trkpt>
      <trkpt lat="44.14318" lon="6.90457">
        <ele>1475.52</ele>
        <time>2017-10-15T09:05:12Z</time>
      </trkpt>
      <trkpt lat="44.14336" lon="6.90465">
        <ele>1484.21</ele>
        <time>2017-10-15T09:05:30Z</time>
      </trkpt>
      <trkpt lat="44.14353" lon="6.90453">
        <ele>1489.33</ele>
        <time>2017-10-15T09:05:44Z</time>
      </trkpt>
      <trkpt lat="44.14372" lon="6.90446">
        <ele>1488.51</ele>
        <time>2017-10-15T09:06:16Z</time>
      </trkpt>
      <trkpt lat="44.1439" lon="6.90447">
        <ele>1484.34</ele>
        <time>2017-10-15T09:06:34Z</time>
      </trkpt>
      <trkpt lat="44.14406" lon="6.90429">
        <ele>1489.84</ele>
        <time>2017-10-15T09:07:01Z</time>
      </trkpt>
      <trkpt lat="44.14424" lon="6.90432">
        <ele>1487.15</ele>
        <time>2017-10-15T09:07:50Z</time>
      </trkpt>
      <trkpt lat="44.14443" lon="6.90428">
        <ele>1494.14</ele>
        <time>2017-10-15T09:08:03Z</time>
      </trkpt>
      <trkpt lat="44.14459" lon="6.90438">
        <ele>1495.23</ele>
        <time>2017-10-15T09:08:11Z</time>
      </trkpt>
      <trkpt lat="44.14477" lon="6.9044">
        <ele>1494.22</ele>
        <time>2017-10-15T09:08:35Z</time>
      </trkpt>
      <trkpt lat="44.14461" lon="6.90424">
        <ele>1503.14</ele>
        <time>2017-10-15T09:09:24Z</time>
      </trkpt>
      <trkpt lat="44.14477" lon="6.90447">
        <ele>1519.74</ele>
        <time>2017-10-15T09:10:09Z</time>
      </trkpt>
      <trkpt lat="44.14495" lon="6.90462">
        <ele>1516.21</ele>
        <time>2017-10-15T09:10:25Z</time>
      </trkpt>
      <trkpt lat="44.14501" lon="6.90438">
        <ele>1523.58</ele>
        <time>2017-10-15T09:10:39Z</time>
      </trkpt>
      <trkpt lat="44.14519" lon="6.9043">
        <ele>1525.78</ele>
        <time>2017-10-15T09:11:27Z</time>
      </trkpt>
      <trkpt lat="44.14537" lon="6.9042">
        <ele>1524.48</ele>
        <time>2017-10-15T09:11:38Z</time>
      </trkpt>
      <trkpt lat="44.14555" lon="6.9042">
        <ele>1528.86</ele>
        <time>2017-10-15T09:11:52Z</time>
      </trkpt>
      <trkpt lat="44.14566" lon="6.90399">
        <ele>1539.42</ele>
        <time>2017-10-15T09:12:03Z</time>
      </trkpt>
      <trkpt lat="44.14553" lon="6.90416">
        <ele>1534.32</ele>
        <time>2017-10-15T09:12:35Z</time>
      </trkpt>
      <trkpt lat="44.14567" lon="6.90432">
        <ele>1537.2</ele>
        <time>2017-10-15T09:13:09Z</time>
      </trkpt>
      <trkpt lat="44.14556" lon="6.90453">
        <ele>1533.25</ele>
        <time>2017-10-15T09:13:47Z</time>
      </trkpt>
      <trkpt lat="44.14547" lon="6.90476">
        <ele>1538.13</ele>
        <time>2017-10-15T09:14:10Z</time>
      </trkpt>
      <trkpt lat="44.14566" lon="6.90479">
        <ele>1537.62</ele>
        <time>2017-10-15T09:14:26Z</time>
      </trkpt>
      <trkpt lat="44.1457" lon="6.90454">
        <ele>1541.81</ele>
        <time>2017-10-15T09:14:44Z</time>
      </trkpt>
      <trkpt lat="44.14569" lon="6.90481">
        <ele>1560.85</ele>
        <time>2017-10-15T09:16:21Z</time>
      </trkpt>
      <trkpt lat="44.14567" lon="6.90506">
        <ele>1565.55</ele>
        <time>2017-10-15T09:16:44Z</time>
      </trkpt>
      <trkpt lat="44.14584" lon="6.90517">
        <ele>1571.43</ele>
        <time>2017-10-15T09:17:08Z</time>
      </trkpt>
      <trkpt lat="44.14583" lon="6.90543">
        <ele>1590.74</ele>
        <time>2017-10-15T09:18:00Z</time>
      </trkpt>
      <trkpt lat="44.14569" lon="6.9056">
        <ele>1603.19</ele>
        <time>2017-10-15T09:18:36Z</time>
      </trkpt>
      <trkpt lat="44.1458" lon="6.90581">
        <ele>1606.86</ele>
        <time>2017-10-15T09:19:12Z</time>
      </trkpt>
      <trkpt lat="44.14598" lon="6.90589">
        <ele>1609.87</ele>
        <time>2017-10-15T09:19:35Z</time>
      </trkpt>
      <trkpt lat="44.14616" lon="6.9059">
        <ele>1609.57</ele>
        <time>2017-10-15T09:19:57Z</time>
      </trkpt>
      <trkpt lat="44.14634" lon="6.90589">
        <ele>1611.55</ele>
        <time>2017-10-15T09:20:19Z</time>
      </trkpt>
      <trkpt lat="44.14646" lon="6.90569">
        <ele>1611.53</ele>
        <time>2017-10-15T09:20:42Z</time>
      </trkpt>
      <trkpt lat="44.14665" lon="6.90567">
        <ele>1609.05</ele>
        <time>2017-10-15T09:21:01Z</time>
      </trkpt>
      <trkpt lat="44.14682" lon="6.90576">
        <ele>1615.63</ele>
        <time>2017-10-15T09:21:33Z</time>
      </trkpt>
      <trkpt lat="44.14684" lon="6.90602">
        <ele>1630.27</ele>
        <time>2017-10-15T09:22:38Z</time>
      </trkpt>
      <trkpt lat="44.14673" lon="6.90623">
        <ele>1627.18</ele>
        <time>2017-10-15T09:23:15Z</time>
      </trkpt>
      <trkpt lat="44.1469" lon="6.90634">
        <ele>1633.58</ele>
        <time>2017-10-15T09:23:57Z</time>
      </trkpt>
      <trkpt lat="44.14711" lon="6.90642">
        <ele>1635.91</ele>
        <time>2017-10-15T09:24:32Z</time>
      </trkpt>
      <trkpt lat="44.14694" lon="6.90651">
        <ele>1637.25</ele>
        <time>2017-10-15T09:24:52Z</time>
      </trkpt>
      <trkpt lat="44.14712" lon="6.90667">
        <ele>1643.06</ele>
        <time>2017-10-15T09:26:00Z</time>
      </trkpt>
      <trkpt lat="44.14731" lon="6.90669">
        <ele>1649.18</ele>
        <time>2017-10-15T09:26:17Z</time>
      </trkpt>
      <trkpt lat="44.14743" lon="6.90689">
        <ele>1671.76</ele>
        <time>2017-10-15T09:27:40Z</time>
      </trkpt>
      <trkpt lat="44.14761" lon="6.90682">
        <ele>1673.22</ele>
        <time>2017-10-15T09:28:03Z</time>
      </trkpt>
      <trkpt lat="44.14779" lon="6.90678">
        <ele>1676.68</ele>
        <time>2017-10-15T09:28:31Z</time>
      </trkpt>
      <trkpt lat="44.14797" lon="6.90684">
        <ele>1680.72</ele>
        <time>2017-10-15T09:29:11Z</time>
      </trkpt>
      <trkpt lat="44.14815" lon="6.90679">
        <ele>1677.07</ele>
        <time>2017-10-15T09:29:33Z</time>
      </trkpt>
      <trkpt lat="44.14826" lon="6.90657">
        <ele>1688.03</ele>
        <time>2017-10-15T09:29:53Z</time>
      </trkpt>
      <trkpt lat="44.14837" lon="6.90677">
        <ele>1701.13</ele>
        <time>2017-10-15T09:31:07Z</time>
      </trkpt>
      <trkpt lat="44.14856" lon="6.90672">
        <ele>1700.65</ele>
        <time>2017-10-15T09:31:38Z</time>
      </trkpt>
      <trkpt lat="44.14873" lon="6.90658">
        <ele>1706.25</ele>
        <time>2017-10-15T09:32:10Z</time>
      </trkpt>
      <trkpt lat="44.14893" lon="6.90656">
        <ele>1710.5</ele>
        <time>2017-10-15T09:32:41Z</time>
      </trkpt>
      <trkpt lat="44.14896" lon="6.90681">
        <ele>1723.61</ele>
        <time>2017-10-15T09:33:36Z</time>
      </trkpt>
      <trkpt lat="44.14915" lon="6.90682">
        <ele>1733.77</ele>
        <time>2017-10-15T09:34:16Z</time>
      </trkpt>
      <trkpt lat="44.14931" lon="6.90669">
        <ele>1734.53</ele>
        <time>2017-10-15T09:34:35Z</time>
      </trkpt>
      <trkpt lat="44.14948" lon="6.90657">
        <ele>1733.86</ele>
        <time>2017-10-15T09:34:59Z</time>
      </trkpt>
      <trkpt lat="44.14964" lon="6.90642">
        <ele>1740.55</ele>
        <time>2017-10-15T09:35:25Z</time>
      </trkpt>
      <trkpt lat="44.14983" lon="6.9064">
        <ele>1743.22</ele>
        <time>2017-10-15T09:35:49Z</time>
      </trkpt>
      <trkpt lat="44.15" lon="6.90646">
        <ele>1744.37</ele>
        <time>2017-10-15T09:36:06Z</time>
      </trkpt>
      <trkpt lat="44.15016" lon="6.9066">
        <ele>1743.95</ele>
        <time>2017-10-15T09:36:31Z</time>
      </trkpt>
      <trkpt lat="44.15034" lon="6.90668">
        <ele>1755.27</ele>
        <time>2017-10-15T09:37:02Z</time>
      </trkpt>
      <trkpt lat="44.15052" lon="6.90657">
        <ele>1762.54</ele>
        <time>2017-10-15T09:37:47Z</time>
      </trkpt>
      <trkpt lat="44.1507" lon="6.90648">
        <ele>1762.55</ele>
        <time>2017-10-15T09:38:04Z</time>
      </trkpt>
      <trkpt lat="44.1509" lon="6.90644">
        <ele>1759.45</ele>
        <time>2017-10-15T09:38:22Z</time>
      </trkpt>
      <trkpt lat="44.15107" lon="6.90636">
        <ele>1759.56</ele>
        <time>2017-10-15T09:38:48Z</time>
      </trkpt>
      <trkpt lat="44.15124" lon="6.90628">
        <ele>1760.16</ele>
        <time>2017-10-15T09:39:06Z</time>
      </trkpt>
      <trkpt lat="44.15142" lon="6.90616">
        <ele>1762.52</ele>
        <time>2017-10-15T09:39:31Z</time>
      </trkpt>
      <trkpt lat="44.15161" lon="6.90608">
        <ele>1765.81</ele>
        <time>2017-10-15T09:39:48Z</time>
      </trkpt>
      <trkpt lat="44.15179" lon="6.90605">
        <ele>1763.25</ele>
        <time>2017-10-15T09:40:01Z</time>
      </trkpt>
      <trkpt lat="44.15198" lon="6.90601">
        <ele>1768.16</ele>
        <time>2017-10-15T09:40:41Z</time>
      </trkpt>
      <trkpt lat="44.15216" lon="6.90594">
        <ele>1770.31</ele>
        <time>2017-10-15T09:40:58Z</time>
      </trkpt>
      <trkpt lat="44.15234" lon="6.90586">
        <ele>1771.88</ele>
        <time>2017-10-15T09:41:22Z</time>
      </trkpt>
      <trkpt lat="44.15252" lon="6.9058">
        <ele>1779.34</ele>
        <time>2017-10-15T09:41:56Z</time>
      </trkpt>
      <trkpt lat="44.15271" lon="6.90574">
        <ele>1778.56</ele>
        <time>2017-10-15T09:42:24Z</time>
      </trkpt>
      <trkpt lat="44.15293" lon="6.90579">
        <ele>1789.08</ele>
        <time>2017-10-15T09:42:58Z</time>
      </trkpt>
      <trkpt lat="44.15312" lon="6.90576">
        <ele>1791.82</ele>
        <time>2017-10-15T09:43:20Z</time>
      </trkpt>
      <trkpt lat="44.1533" lon="6.90575">
        <ele>1791.14</ele>
        <time>2017-10-15T09:43:42Z</time>
      </trkpt>
      <trkpt lat="44.15348" lon="6.90565">
        <ele>1797.15</ele>
        <time>2017-10-15T09:44:00Z</time>
      </trkpt>
      <trkpt lat="44.15368" lon="6.90566">
        <ele>1798.85</ele>
        <time>2017-10-15T09:44:19Z</time>
      </trkpt>
      <trkpt lat="44.15386" lon="6.90567">
        <ele>1808.76</ele>
        <time>2017-10-15T09:44:54Z</time>
      </trkpt>
      <trkpt lat="44.15405" lon="6.90568">
        <ele>1817.48</ele>
        <time>2017-10-15T09:52:30Z</time>
      </trkpt>
      <trkpt lat="44.15424" lon="6.90568">
        <ele>1821.97</ele>
        <time>2017-10-15T09:52:50Z</time>
      </trkpt>
      <trkpt lat="44.15442" lon="6.90571">
        <ele>1819.57</ele>
        <time>2017-10-15T09:53:11Z</time>
      </trkpt>
      <trkpt lat="44.15462" lon="6.90572">
        <ele>1821.91</ele>
        <time>2017-10-15T09:53:32Z</time>
      </trkpt>
      <trkpt lat="44.15479" lon="6.90581">
        <ele>1823.76</ele>
        <time>2017-10-15T09:53:46Z</time>
      </trkpt>
      <trkpt lat="44.15496" lon="6.9059">
        <ele>1830.25</ele>
        <time>2017-10-15T09:54:13Z</time>
      </trkpt>
      <trkpt lat="44.15514" lon="6.90591">
        <ele>1833.72</ele>
        <time>2017-10-15T09:54:41Z</time>
      </trkpt>
      <trkpt lat="44.15513" lon="6.90617">
        <ele>1844.1</ele>
        <time>2017-10-15T09:55:04Z</time>
      </trkpt>
      <trkpt lat="44.15528" lon="6.90632">
        <ele>1837.98</ele>
        <time>2017-10-15T09:55:43Z</time>
      </trkpt>
      <trkpt lat="44.1554" lon="6.90653">
        <ele>1839.06</ele>
        <time>2017-10-15T09:56:06Z</time>
      </trkpt>
      <trkpt lat="44.15559" lon="6.90659">
        <ele>1846.62</ele>
        <time>2017-10-15T09:56:22Z</time>
      </trkpt>
      <trkpt lat="44.15571" lon="6.90639">
        <ele>1850.16</ele>
        <time>2017-10-15T09:57:11Z</time>
      </trkpt>
      <trkpt lat="44.15581" lon="6.90618">
        <ele>1845.87</ele>
        <time>2017-10-15T09:57:27Z</time>
      </trkpt>
      <trkpt lat="44.15596" lon="6.90603">
        <ele>1837.2</ele>
        <time>2017-10-15T09:57:54Z</time>
      </trkpt>
      <trkpt lat="44.15611" lon="6.90588">
        <ele>1845.07</ele>
        <time>2017-10-15T09:58:20Z</time>
      </trkpt>
      <trkpt lat="44.1563" lon="6.90585">
        <ele>1849.48</ele>
        <time>2017-10-15T09:58:31Z</time>
      </trkpt>
      <trkpt lat="44.15648" lon="6.90582">
        <ele>1851.52</ele>
        <time>2017-10-15T09:58:53Z</time>
      </trkpt>
      <trkpt lat="44.15666" lon="6.90581">
        <ele>1861.58</ele>
        <time>2017-10-15T09:59:18Z</time>
      </trkpt>
      <trkpt lat="44.15686" lon="6.90584">
        <ele>1865.83</ele>
        <time>2017-10-15T09:59:40Z</time>
      </trkpt>
      <trkpt lat="44.15704" lon="6.90573">
        <ele>1859.55</ele>
        <time>2017-10-15T10:00:01Z</time>
      </trkpt>
      <trkpt lat="44.15722" lon="6.90566">
        <ele>1861.55</ele>
        <time>2017-10-15T10:00:25Z</time>
      </trkpt>
      <trkpt lat="44.15739" lon="6.90557">
        <ele>1859.55</ele>
        <time>2017-10-15T10:00:47Z</time>
      </trkpt>
      <trkpt lat="44.15756" lon="6.90546">
        <ele>1862.34</ele>
        <time>2017-10-15T10:01:25Z</time>
      </trkpt>
      <trkpt lat="44.15777" lon="6.90543">
        <ele>1868.1</ele>
        <time>2017-10-15T10:01:33Z</time>
      </trkpt>
      <trkpt lat="44.15795" lon="6.90534">
        <ele>1876.24</ele>
        <time>2017-10-15T10:02:09Z</time>
      </trkpt>
      <trkpt lat="44.15796" lon="6.90508">
        <ele>1879.12</ele>
        <time>2017-10-15T10:02:46Z</time>
      </trkpt>
      <trkpt lat="44.15804" lon="6.90485">
        <ele>1874.64</ele>
        <time>2017-10-15T10:03:18Z</time>
      </trkpt>
      <trkpt lat="44.15821" lon="6.90476">
        <ele>1874.46</ele>
        <time>2017-10-15T10:03:31Z</time>
      </trkpt>
      <trkpt lat="44.15841" lon="6.90476">
        <ele>1875.56</ele>
        <time>2017-10-15T10:04:40Z</time>
      </trkpt>
      <trkpt lat="44.15857" lon="6.9049">
        <ele>1885.79</ele>
        <time>2017-10-15T10:05:36Z</time>
      </trkpt>
      <trkpt lat="44.15875" lon="6.9049">
        <ele>1883.47</ele>
        <time>2017-10-15T10:06:08Z</time>
      </trkpt>
      <trkpt lat="44.15882" lon="6.90513">
        <ele>1893.57</ele>
        <time>2017-10-15T10:06:57Z</time>
      </trkpt>
      <trkpt lat="44.15899" lon="6.90506">
        <ele>1892.85</ele>
        <time>2017-10-15T10:07:37Z</time>
      </trkpt>
      <trkpt lat="44.15917" lon="6.90499">
        <ele>1894.57</ele>
        <time>2017-10-15T10:08:03Z</time>
      </trkpt>
      <trkpt lat="44.15935" lon="6.90494">
        <ele>1910.58</ele>
        <time>2017-10-15T10:08:58Z</time>
      </trkpt>
      <trkpt lat="44.1595" lon="6.90481">
        <ele>1907.58</ele>
        <time>2017-10-15T10:09:37Z</time>
      </trkpt>
      <trkpt lat="44.15966" lon="6.90468">
        <ele>1907.96</ele>
        <time>2017-10-15T10:09:57Z</time>
      </trkpt>
      <trkpt lat="44.15982" lon="6.90457">
        <ele>1904.97</ele>
        <time>2017-10-15T10:10:13Z</time>
      </trkpt>
      <trkpt lat="44.15994" lon="6.90435">
        <ele>1910.61</ele>
        <time>2017-10-15T10:10:35Z</time>
      </trkpt>
      <trkpt lat="44.16001" lon="6.90412">
        <ele>1915.54</ele>
        <time>2017-10-15T10:10:49Z</time>
      </trkpt>
      <trkpt lat="44.16016" lon="6.90396">
        <ele>1913.03</ele>
        <time>2017-10-15T10:11:05Z</time>
      </trkpt>
      <trkpt lat="44.1601" lon="6.90422">
        <ele>1932.34</ele>
        <time>2017-10-15T10:12:20Z</time>
      </trkpt>
      <trkpt lat="44.16028" lon="6.90424">
        <ele>1925.64</ele>
        <time>2017-10-15T10:13:27Z</time>
      </trkpt>
      <trkpt lat="44.16031" lon="6.9045">
        <ele>1942.94</ele>
        <time>2017-10-15T10:14:05Z</time>
      </trkpt>
      <trkpt lat="44.1605" lon="6.90446">
        <ele>1930.94</ele>
        <time>2017-10-15T10:14:44Z</time>
      </trkpt>
      <trkpt lat="44.16053" lon="6.90473">
        <ele>1960.91</ele>
        <time>2017-10-15T10:15:59Z</time>
      </trkpt>
      <trkpt lat="44.16072" lon="6.90467">
        <ele>1958.85</ele>
        <time>2017-10-15T10:16:46Z</time>
      </trkpt>
      <trkpt lat="44.16078" lon="6.90491">
        <ele>1970.24</ele>
        <time>2017-10-15T10:17:45Z</time>
      </trkpt>
      <trkpt lat="44.16076" lon="6.90518">
        <ele>1975.24</ele>
        <time>2017-10-15T10:18:09Z</time>
      </trkpt>
      <trkpt lat="44.16088" lon="6.90498">
        <ele>1987.31</ele>
        <time>2017-10-15T10:19:11Z</time>
      </trkpt>
      <trkpt lat="44.16106" lon="6.90489">
        <ele>1985.66</ele>
        <time>2017-10-15T10:19:28Z</time>
      </trkpt>
      <trkpt lat="44.16124" lon="6.90479">
        <ele>1988.57</ele>
        <time>2017-10-15T10:20:06Z</time>
      </trkpt>
      <trkpt lat="44.16141" lon="6.90465">
        <ele>1985.66</ele>
        <time>2017-10-15T10:20:21Z</time>
      </trkpt>
      <trkpt lat="44.16151" lon="6.90444">
        <ele>1994.54</ele>
        <time>2017-10-15T10:21:17Z</time>
      </trkpt>
      <trkpt lat="44.1617" lon="6.90449">
        <ele>1987.57</ele>
        <time>2017-10-15T10:21:44Z</time>
      </trkpt>
      <trkpt lat="44.16161" lon="6.90495">
        <ele>1986.36</ele>
        <time>2017-10-15T10:22:00Z</time>
      </trkpt>
      <trkpt lat="44.16202" lon="6.90494">
        <ele>1949.72</ele>
        <time>2017-10-15T10:22:27Z</time>
      </trkpt>
      <trkpt lat="44.16189" lon="6.90472">
        <ele>1942.49</ele>
        <time>2017-10-15T10:22:29Z</time>
      </trkpt>
      <trkpt lat="44.16197" lon="6.90447">
        <ele>1962.25</ele>
        <time>2017-10-15T10:23:14Z</time>
      </trkpt>
      <trkpt lat="44.16215" lon="6.90444">
        <ele>1972.75</ele>
        <time>2017-10-15T10:23:40Z</time>
      </trkpt>
      <trkpt lat="44.162" lon="6.90457">
        <ele>2001.45</ele>
        <time>2017-10-15T10:24:29Z</time>
      </trkpt>
      <trkpt lat="44.16205" lon="6.90483">
        <ele>1997.81</ele>
        <time>2017-10-15T10:25:10Z</time>
      </trkpt>
      <trkpt lat="44.1622" lon="6.90496">
        <ele>1997.27</ele>
        <time>2017-10-15T10:25:28Z</time>
      </trkpt>
      <trkpt lat="44.16239" lon="6.90494">
        <ele>2000.47</ele>
        <time>2017-10-15T10:25:49Z</time>
      </trkpt>
      <trkpt lat="44.16258" lon="6.90494">
        <ele>1996.82</ele>
        <time>2017-10-15T10:26:35Z</time>
      </trkpt>
      <trkpt lat="44.1627" lon="6.90475">
        <ele>2012.83</ele>
        <time>2017-10-15T10:26:58Z</time>
      </trkpt>
      <trkpt lat="44.16287" lon="6.90466">
        <ele>2011.8</ele>
        <time>2017-10-15T10:27:17Z</time>
      </trkpt>
      <trkpt lat="44.16305" lon="6.90473">
        <ele>2006.73</ele>
        <time>2017-10-15T10:27:30Z</time>
      </trkpt>
      <trkpt lat="44.16323" lon="6.90465">
        <ele>2008.47</ele>
        <time>2017-10-15T10:27:54Z</time>
      </trkpt>
      <trkpt lat="44.1634" lon="6.90455">
        <ele>2010.85</ele>
        <time>2017-10-15T10:28:15Z</time>
      </trkpt>
      <trkpt lat="44.16358" lon="6.90448">
        <ele>2014.33</ele>
        <time>2017-10-15T10:28:38Z</time>
      </trkpt>
      <trkpt lat="44.16371" lon="6.90432">
        <ele>2024.75</ele>
        <time>2017-10-15T10:29:06Z</time>
      </trkpt>
      <trkpt lat="44.1638" lon="6.9041">
        <ele>2041.33</ele>
        <time>2017-10-15T10:30:02Z</time>
      </trkpt>
      <trkpt lat="44.16395" lon="6.90395">
        <ele>2054.04</ele>
        <time>2017-10-15T10:31:29Z</time>
      </trkpt>
      <trkpt lat="44.16402" lon="6.90418">
        <ele>2066.92</ele>
        <time>2017-10-15T10:32:02Z</time>
      </trkpt>
      <trkpt lat="44.16415" lon="6.90401">
        <ele>2065.5</ele>
        <time>2017-10-15T10:32:24Z</time>
      </trkpt>
      <trkpt lat="44.16432" lon="6.90389">
        <ele>2058.25</ele>
        <time>2017-10-15T10:32:41Z</time>
      </trkpt>
      <trkpt lat="44.16444" lon="6.90369">
        <ele>2062.43</ele>
        <time>2017-10-15T10:33:07Z</time>
      </trkpt>
      <trkpt lat="44.16463" lon="6.90366">
        <ele>2077.5</ele>
        <time>2017-10-15T10:34:13Z</time>
      </trkpt>
      <trkpt lat="44.16469" lon="6.9039">
        <ele>2087.52</ele>
        <time>2017-10-15T10:34:49Z</time>
      </trkpt>
      <trkpt lat="44.16487" lon="6.90387">
        <ele>2082.63</ele>
        <time>2017-10-15T10:35:32Z</time>
      </trkpt>
      <trkpt lat="44.1648" lon="6.90411">
        <ele>2090.64</ele>
        <time>2017-10-15T10:35:55Z</time>
      </trkpt>
      <trkpt lat="44.16498" lon="6.90409">
        <ele>2090.53</ele>
        <time>2017-10-15T10:36:32Z</time>
      </trkpt>
      <trkpt lat="44.16514" lon="6.90421">
        <ele>2098.35</ele>
        <time>2017-10-15T10:37:28Z</time>
      </trkpt>
      <trkpt lat="44.16513" lon="6.90447">
        <ele>2108.43</ele>
        <time>2017-10-15T10:37:53Z</time>
      </trkpt>
      <trkpt lat="44.16504" lon="6.90469">
        <ele>2113.57</ele>
        <time>2017-10-15T10:38:42Z</time>
      </trkpt>
      <trkpt lat="44.16522" lon="6.9047">
        <ele>2119.47</ele>
        <time>2017-10-15T10:39:07Z</time>
      </trkpt>
      <trkpt lat="44.16541" lon="6.90475">
        <ele>2124.74</ele>
        <time>2017-10-15T10:39:54Z</time>
      </trkpt>
      <trkpt lat="44.16549" lon="6.90498">
        <ele>2135.83</ele>
        <time>2017-10-15T10:40:31Z</time>
      </trkpt>
      <trkpt lat="44.16568" lon="6.90501">
        <ele>2137.63</ele>
        <time>2017-10-15T10:40:59Z</time>
      </trkpt>
      <trkpt lat="44.16581" lon="6.90485">
        <ele>2139.55</ele>
        <time>2017-10-15T10:41:31Z</time>
      </trkpt>
      <trkpt lat="44.1659" lon="6.90508">
        <ele>2163.16</ele>
        <time>2017-10-15T10:42:45Z</time>
      </trkpt>
      <trkpt lat="44.16608" lon="6.90511">
        <ele>2173.25</ele>
        <time>2017-10-15T10:43:45Z</time>
      </trkpt>
      <trkpt lat="44.16618" lon="6.90489">
        <ele>2168.54</ele>
        <time>2017-10-15T10:44:09Z</time>
      </trkpt>
      <trkpt lat="44.16632" lon="6.90506">
        <ele>2197.04</ele>
        <time>2017-10-15T10:45:21Z</time>
      </trkpt>
      <trkpt lat="44.16632" lon="6.90532">
        <ele>2197.45</ele>
        <time>2017-10-15T10:45:47Z</time>
      </trkpt>
      <trkpt lat="44.1665" lon="6.90528">
        <ele>2201.46</ele>
        <time>2017-10-15T10:46:45Z</time>
      </trkpt>
      <trkpt lat="44.1665" lon="6.90554">
        <ele>2203.81</ele>
        <time>2017-10-15T10:53:24Z</time>
      </trkpt>
      <trkpt lat="44.16651" lon="6.9058">
        <ele>2200.79</ele>
        <time>2017-10-15T10:54:07Z</time>
      </trkpt>
      <trkpt lat="44.16654" lon="6.90606">
        <ele>2209.31</ele>
        <time>2017-10-15T10:54:38Z</time>
      </trkpt>
      <trkpt lat="44.16652" lon="6.90631">
        <ele>2217.49</ele>
        <time>2017-10-15T10:55:16Z</time>
      </trkpt>
      <trkpt lat="44.16636" lon="6.90644">
        <ele>2230.7</ele>
        <time>2017-10-15T10:56:09Z</time>
      </trkpt>
      <trkpt lat="44.16632" lon="6.9067">
        <ele>2230.24</ele>
        <time>2017-10-15T10:56:55Z</time>
      </trkpt>
      <trkpt lat="44.16629" lon="6.90695">
        <ele>2239.23</ele>
        <time>2017-10-15T10:58:18Z</time>
      </trkpt>
      <trkpt lat="44.16627" lon="6.90721">
        <ele>2236.35</ele>
        <time>2017-10-15T10:58:49Z</time>
      </trkpt>
      <trkpt lat="44.16618" lon="6.90743">
        <ele>2237.52</ele>
        <time>2017-10-15T10:59:13Z</time>
      </trkpt>
      <trkpt lat="44.16602" lon="6.90755">
        <ele>2247.25</ele>
        <time>2017-10-15T10:59:50Z</time>
      </trkpt>
      <trkpt lat="44.16588" lon="6.90772">
        <ele>2256.17</ele>
        <time>2017-10-15T11:00:25Z</time>
      </trkpt>
      <trkpt lat="44.16576" lon="6.90791">
        <ele>2260.19</ele>
        <time>2017-10-15T11:01:00Z</time>
      </trkpt>
      <trkpt lat="44.16575" lon="6.90817">
        <ele>2262.26</ele>
        <time>2017-10-15T11:01:39Z</time>
      </trkpt>
      <trkpt lat="44.16567" lon="6.9084">
        <ele>2274.95</ele>
        <time>2017-10-15T11:02:38Z</time>
      </trkpt>
      <trkpt lat="44.16554" lon="6.90856">
        <ele>2285.13</ele>
        <time>2017-10-15T11:03:24Z</time>
      </trkpt>
      <trkpt lat="44.1654" lon="6.90873">
        <ele>2294.55</ele>
        <time>2017-10-15T11:03:56Z</time>
      </trkpt>
      <trkpt lat="44.16527" lon="6.90891">
        <ele>2299.93</ele>
        <time>2017-10-15T11:04:25Z</time>
      </trkpt>
      <trkpt lat="44.16515" lon="6.90911">
        <ele>2303.25</ele>
        <time>2017-10-15T11:05:07Z</time>
      </trkpt>
      <trkpt lat="44.165" lon="6.90926">
        <ele>2314.16</ele>
        <time>2017-10-15T11:05:36Z</time>
      </trkpt>
      <trkpt lat="44.16489" lon="6.90946">
        <ele>2314.45</ele>
        <time>2017-10-15T11:06:16Z</time>
      </trkpt>
      <trkpt lat="44.16479" lon="6.90968">
        <ele>2317.03</ele>
        <time>2017-10-15T11:06:48Z</time>
      </trkpt>
      <trkpt lat="44.16469" lon="6.90989">
        <ele>2321.45</ele>
        <time>2017-10-15T11:07:18Z</time>
      </trkpt>
      <trkpt lat="44.16462" lon="6.91013">
        <ele>2327.53</ele>
        <time>2017-10-15T11:07:54Z</time>
      </trkpt>
      <trkpt lat="44.16454" lon="6.91036">
        <ele>2336.25</ele>
        <time>2017-10-15T11:08:36Z</time>
      </trkpt>
      <trkpt lat="44.16444" lon="6.91058">
        <ele>2342.21</ele>
        <time>2017-10-15T11:08:53Z</time>
      </trkpt>
      <trkpt lat="44.16435" lon="6.9108">
        <ele>2345.55</ele>
        <time>2017-10-15T11:09:27Z</time>
      </trkpt>
      <trkpt lat="44.16422" lon="6.91104">
        <ele>2344.57</ele>
        <time>2017-10-15T11:09:46Z</time>
      </trkpt>
      <trkpt lat="44.16407" lon="6.9112">
        <ele>2348.55</ele>
        <time>2017-10-15T11:10:08Z</time>
      </trkpt>
      <trkpt lat="44.16391" lon="6.91134">
        <ele>2351.34</ele>
        <time>2017-10-15T11:11:59Z</time>
      </trkpt>
      <trkpt lat="44.16379" lon="6.91154">
        <ele>2346.56</ele>
        <time>2017-10-15T11:12:19Z</time>
      </trkpt>
      <trkpt lat="44.16362" lon="6.91167">
        <ele>2345.7</ele>
        <time>2017-10-15T11:12:42Z</time>
      </trkpt>
      <trkpt lat="44.16349" lon="6.91185">
        <ele>2344.85</ele>
        <time>2017-10-15T11:12:59Z</time>
      </trkpt>
      <trkpt lat="44.16339" lon="6.91206">
        <ele>2345.47</ele>
        <time>2017-10-15T11:13:16Z</time>
      </trkpt>
      <trkpt lat="44.16326" lon="6.91226">
        <ele>2344.65</ele>
        <time>2017-10-15T11:13:36Z</time>
      </trkpt>
      <trkpt lat="44.16317" lon="6.9125">
        <ele>2342.23</ele>
        <time>2017-10-15T11:13:56Z</time>
      </trkpt>
      <trkpt lat="44.16305" lon="6.91271">
        <ele>2343.25</ele>
        <time>2017-10-15T11:14:11Z</time>
      </trkpt>
      <trkpt lat="44.16293" lon="6.91291">
        <ele>2343.25</ele>
        <time>2017-10-15T11:14:29Z</time>
      </trkpt>
      <trkpt lat="44.16283" lon="6.91313">
        <ele>2342.85</ele>
        <time>2017-10-15T11:14:44Z</time>
      </trkpt>
      <trkpt lat="44.16271" lon="6.91335">
        <ele>2343.53</ele>
        <time>2017-10-15T11:15:05Z</time>
      </trkpt>
      <trkpt lat="44.16261" lon="6.91358">
        <ele>2345.5</ele>
        <time>2017-10-15T11:15:24Z</time>
      </trkpt>
      <trkpt lat="44.16251" lon="6.91379">
        <ele>2345.55</ele>
        <time>2017-10-15T11:15:39Z</time>
      </trkpt>
      <trkpt lat="44.1624" lon="6.914">
        <ele>2354.4</ele>
        <time>2017-10-15T11:16:02Z</time>
      </trkpt>
      <trkpt lat="44.16232" lon="6.91423">
        <ele>2355.64</ele>
        <time>2017-10-15T11:16:20Z</time>
      </trkpt>
      <trkpt lat="44.16224" lon="6.91447">
        <ele>2359.31</ele>
        <time>2017-10-15T11:16:46Z</time>
      </trkpt>
      <trkpt lat="44.16217" lon="6.91471">
        <ele>2362.44</ele>
        <time>2017-10-15T11:17:11Z</time>
      </trkpt>
      <trkpt lat="44.16207" lon="6.91494">
        <ele>2365.55</ele>
        <time>2017-10-15T11:17:37Z</time>
      </trkpt>
      <trkpt lat="44.16195" lon="6.91513">
        <ele>2369.87</ele>
        <time>2017-10-15T11:18:06Z</time>
      </trkpt>
      <trkpt lat="44.16181" lon="6.91531">
        <ele>2370.55</ele>
        <time>2017-10-15T11:18:32Z</time>
      </trkpt>
      <trkpt lat="44.16171" lon="6.91552">
        <ele>2374.55</ele>
        <time>2017-10-15T11:19:02Z</time>
      </trkpt>
      <trkpt lat="44.16162" lon="6.91575">
        <ele>2375.56</ele>
        <time>2017-10-15T11:19:33Z</time>
      </trkpt>
      <trkpt lat="44.16149" lon="6.91593">
        <ele>2382.56</ele>
        <time>2017-10-15T11:20:03Z</time>
      </trkpt>
      <trkpt lat="44.16141" lon="6.91616">
        <ele>2384.55</ele>
        <time>2017-10-15T11:20:40Z</time>
      </trkpt>
      <trkpt lat="44.16133" lon="6.91639">
        <ele>2389.24</ele>
        <time>2017-10-15T11:21:08Z</time>
      </trkpt>
      <trkpt lat="44.16118" lon="6.91654">
        <ele>2398.16</ele>
        <time>2017-10-15T11:21:52Z</time>
      </trkpt>
      <trkpt lat="44.16107" lon="6.91674">
        <ele>2404.24</ele>
        <time>2017-10-15T11:22:26Z</time>
      </trkpt>
      <trkpt lat="44.16096" lon="6.91699">
        <ele>2409.57</ele>
        <time>2017-10-15T11:23:19Z</time>
      </trkpt>
      <trkpt lat="44.16084" lon="6.91719">
        <ele>2416.55</ele>
        <time>2017-10-15T11:24:01Z</time>
      </trkpt>
      <trkpt lat="44.16072" lon="6.91738">
        <ele>2418.47</ele>
        <time>2017-10-15T11:24:49Z</time>
      </trkpt>
      <trkpt lat="44.1607" lon="6.91764">
        <ele>2427.46</ele>
        <time>2017-10-15T11:25:29Z</time>
      </trkpt>
      <trkpt lat="44.16064" lon="6.91788">
        <ele>2435.22</ele>
        <time>2017-10-15T11:26:07Z</time>
      </trkpt>
      <trkpt lat="44.16059" lon="6.91813">
        <ele>2442.31</ele>
        <time>2017-10-15T11:26:53Z</time>
      </trkpt>
      <trkpt lat="44.16048" lon="6.91834">
        <ele>2447.55</ele>
        <time>2017-10-15T11:27:27Z</time>
      </trkpt>
      <trkpt lat="44.1604" lon="6.91857">
        <ele>2452.59</ele>
        <time>2017-10-15T11:27:59Z</time>
      </trkpt>
      <trkpt lat="44.1604" lon="6.91883">
        <ele>2460.55</ele>
        <time>2017-10-15T11:29:00Z</time>
      </trkpt>
      <trkpt lat="44.16035" lon="6.91908">
        <ele>2465.88</ele>
        <time>2017-10-15T11:29:39Z</time>
      </trkpt>
      <trkpt lat="44.16021" lon="6.91927">
        <ele>2472.95</ele>
        <time>2017-10-15T11:30:31Z</time>
      </trkpt>
      <trkpt lat="44.16018" lon="6.91952">
        <ele>2475.52</ele>
        <time>2017-10-15T11:31:17Z</time>
      </trkpt>
      <trkpt lat="44.16005" lon="6.91974">
        <ele>2486.49</ele>
        <time>2017-10-15T11:31:55Z</time>
      </trkpt>
      <trkpt lat="44.15995" lon="6.91994">
        <ele>2489.3</ele>
        <time>2017-10-15T11:32:22Z</time>
      </trkpt>
      <trkpt lat="44.1598" lon="6.92009">
        <ele>2491.26</ele>
        <time>2017-10-15T11:32:53Z</time>
      </trkpt>
      <trkpt lat="44.1597" lon="6.92031">
        <ele>2496.81</ele>
        <time>2017-10-15T11:33:20Z</time>
      </trkpt>
      <trkpt lat="44.15958" lon="6.9205">
        <ele>2497.52</ele>
        <time>2017-10-15T11:33:45Z</time>
      </trkpt>
      <trkpt lat="44.15943" lon="6.92065">
        <ele>2492.87</ele>
        <time>2017-10-15T11:34:07Z</time>
      </trkpt>
      <trkpt lat="44.15928" lon="6.92081">
        <ele>2494.46</ele>
        <time>2017-10-15T11:34:29Z</time>
      </trkpt>
      <trkpt lat="44.15915" lon="6.921">
        <ele>2499.46</ele>
        <time>2017-10-15T11:35:14Z</time>
      </trkpt>
      <trkpt lat="44.159" lon="6.92113">
        <ele>2504.85</ele>
        <time>2017-10-15T11:35:44Z</time>
      </trkpt>
      <trkpt lat="44.15886" lon="6.92129">
        <ele>2508.55</ele>
        <time>2017-10-15T11:36:20Z</time>
      </trkpt>
      <trkpt lat="44.15872" lon="6.92145">
        <ele>2512.64</ele>
        <time>2017-10-15T11:37:04Z</time>
      </trkpt>
      <trkpt lat="44.15855" lon="6.92157">
        <ele>2518.22</ele>
        <time>2017-10-15T11:37:58Z</time>
      </trkpt>
      <trkpt lat="44.1584" lon="6.92173">
        <ele>2533.52</ele>
        <time>2017-10-15T11:38:59Z</time>
      </trkpt>
      <trkpt lat="44.15826" lon="6.92189">
        <ele>2532.22</ele>
        <time>2017-10-15T11:39:40Z</time>
      </trkpt>
      <trkpt lat="44.15812" lon="6.92208">
        <ele>2539.25</ele>
        <time>2017-10-15T11:40:29Z</time>
      </trkpt>
      <trkpt lat="44.15808" lon="6.92183">
        <ele>2550.61</ele>
        <time>2017-10-15T11:42:05Z</time>
      </trkpt>
      <trkpt lat="44.158" lon="6.92206">
        <ele>2551.56</ele>
        <time>2017-10-15T12:24:13Z</time>
      </trkpt>
      <trkpt lat="44.15795" lon="6.9223">
        <ele>2548.58</ele>
        <time>2017-10-15T12:24:44Z</time>
      </trkpt>
      <trkpt lat="44.15786" lon="6.92252">
        <ele>2547.31</ele>
        <time>2017-10-15T12:25:44Z</time>
      </trkpt>
      <trkpt lat="44.15773" lon="6.9227">
        <ele>2538.94</ele>
        <time>2017-10-15T12:27:55Z</time>
      </trkpt>
      <trkpt lat="44.1576" lon="6.92288">
        <ele>2527.05</ele>
        <time>2017-10-15T12:29:26Z</time>
      </trkpt>
      <trkpt lat="44.15748" lon="6.92307">
        <ele>2523.24</ele>
        <time>2017-10-15T12:30:40Z</time>
      </trkpt>
      <trkpt lat="44.15732" lon="6.92321">
        <ele>2509.61</ele>
        <time>2017-10-15T12:32:36Z</time>
      </trkpt>
      <trkpt lat="44.15717" lon="6.92337">
        <ele>2503.55</ele>
        <time>2017-10-15T12:33:09Z</time>
      </trkpt>
      <trkpt lat="44.15701" lon="6.92349">
        <ele>2495.53</ele>
        <time>2017-10-15T12:33:47Z</time>
      </trkpt>
      <trkpt lat="44.15686" lon="6.92363">
        <ele>2491.34</ele>
        <time>2017-10-15T12:34:14Z</time>
      </trkpt>
      <trkpt lat="44.15673" lon="6.92381">
        <ele>2482.85</ele>
        <time>2017-10-15T12:35:16Z</time>
      </trkpt>
      <trkpt lat="44.15668" lon="6.92406">
        <ele>2476.49</ele>
        <time>2017-10-15T12:35:53Z</time>
      </trkpt>
      <trkpt lat="44.15663" lon="6.92431">
        <ele>2467.31</ele>
        <time>2017-10-15T12:36:39Z</time>
      </trkpt>
      <trkpt lat="44.15659" lon="6.92456">
        <ele>2457.65</ele>
        <time>2017-10-15T12:37:09Z</time>
      </trkpt>
      <trkpt lat="44.1566" lon="6.92482">
        <ele>2450.24</ele>
        <time>2017-10-15T12:37:40Z</time>
      </trkpt>
      <trkpt lat="44.15649" lon="6.92503">
        <ele>2439.55</ele>
        <time>2017-10-15T12:38:14Z</time>
      </trkpt>
      <trkpt lat="44.15645" lon="6.92528">
        <ele>2438.78</ele>
        <time>2017-10-15T12:38:38Z</time>
      </trkpt>
      <trkpt lat="44.15634" lon="6.92549">
        <ele>2433.54</ele>
        <time>2017-10-15T12:38:59Z</time>
      </trkpt>
      <trkpt lat="44.15631" lon="6.92574">
        <ele>2429.79</ele>
        <time>2017-10-15T12:39:20Z</time>
      </trkpt>
      <trkpt lat="44.15625" lon="6.92599">
        <ele>2426.23</ele>
        <time>2017-10-15T12:39:40Z</time>
      </trkpt>
      <trkpt lat="44.15611" lon="6.92616">
        <ele>2424.24</ele>
        <time>2017-10-15T12:39:58Z</time>
      </trkpt>
      <trkpt lat="44.15601" lon="6.92639">
        <ele>2423.67</ele>
        <time>2017-10-15T12:40:18Z</time>
      </trkpt>
      <trkpt lat="44.1559" lon="6.92661">
        <ele>2423.33</ele>
        <time>2017-10-15T12:40:35Z</time>
      </trkpt>
      <trkpt lat="44.15576" lon="6.92678">
        <ele>2425.61</ele>
        <time>2017-10-15T12:40:55Z</time>
      </trkpt>
      <trkpt lat="44.15563" lon="6.92698">
        <ele>2426.58</ele>
        <time>2017-10-15T12:41:11Z</time>
      </trkpt>
      <trkpt lat="44.15548" lon="6.92712">
        <ele>2429.46</ele>
        <time>2017-10-15T12:41:35Z</time>
      </trkpt>
      <trkpt lat="44.15532" lon="6.92725">
        <ele>2432.94</ele>
        <time>2017-10-15T12:42:03Z</time>
      </trkpt>
      <trkpt lat="44.15524" lon="6.92747">
        <ele>2434.55</ele>
        <time>2017-10-15T12:42:28Z</time>
      </trkpt>
      <trkpt lat="44.15522" lon="6.92773">
        <ele>2432.46</ele>
        <time>2017-10-15T12:42:48Z</time>
      </trkpt>
      <trkpt lat="44.15518" lon="6.92799">
        <ele>2432.37</ele>
        <time>2017-10-15T12:43:14Z</time>
      </trkpt>
      <trkpt lat="44.15513" lon="6.92825">
        <ele>2436.55</ele>
        <time>2017-10-15T12:43:34Z</time>
      </trkpt>
      <trkpt lat="44.15511" lon="6.92849">
        <ele>2440.74</ele>
        <time>2017-10-15T12:43:55Z</time>
      </trkpt>
      <trkpt lat="44.15508" lon="6.92874">
        <ele>2446.44</ele>
        <time>2017-10-15T12:44:19Z</time>
      </trkpt>
      <trkpt lat="44.15503" lon="6.929">
        <ele>2447.26</ele>
        <time>2017-10-15T12:44:42Z</time>
      </trkpt>
      <trkpt lat="44.15501" lon="6.92925">
        <ele>2449.43</ele>
        <time>2017-10-15T12:45:01Z</time>
      </trkpt>
      <trkpt lat="44.15496" lon="6.92949">
        <ele>2449.52</ele>
        <time>2017-10-15T12:45:24Z</time>
      </trkpt>
      <trkpt lat="44.15495" lon="6.92975">
        <ele>2448.56</ele>
        <time>2017-10-15T12:45:48Z</time>
      </trkpt>
      <trkpt lat="44.15494" lon="6.93001">
        <ele>2447.56</ele>
        <time>2017-10-15T12:46:05Z</time>
      </trkpt>
      <trkpt lat="44.15495" lon="6.93028">
        <ele>2450.54</ele>
        <time>2017-10-15T12:46:24Z</time>
      </trkpt>
      <trkpt lat="44.1549" lon="6.93053">
        <ele>2449.64</ele>
        <time>2017-10-15T12:46:42Z</time>
      </trkpt>
      <trkpt lat="44.15485" lon="6.93078">
        <ele>2447.64</ele>
        <time>2017-10-15T12:47:01Z</time>
      </trkpt>
      <trkpt lat="44.15482" lon="6.93102">
        <ele>2448.78</ele>
        <time>2017-10-15T12:47:15Z</time>
      </trkpt>
      <trkpt lat="44.15475" lon="6.93126">
        <ele>2449.46</ele>
        <time>2017-10-15T12:47:32Z</time>
      </trkpt>
      <trkpt lat="44.15468" lon="6.93149">
        <ele>2443.46</ele>
        <time>2017-10-15T12:47:51Z</time>
      </trkpt>
      <trkpt lat="44.15465" lon="6.93176">
        <ele>2445.25</ele>
        <time>2017-10-15T12:48:10Z</time>
      </trkpt>
      <trkpt lat="44.15464" lon="6.93203">
        <ele>2439.94</ele>
        <time>2017-10-15T12:48:29Z</time>
      </trkpt>
      <trkpt lat="44.1546" lon="6.93229">
        <ele>2442.43</ele>
        <time>2017-10-15T12:48:46Z</time>
      </trkpt>
      <trkpt lat="44.1545" lon="6.93251">
        <ele>2447.37</ele>
        <time>2017-10-15T12:49:05Z</time>
      </trkpt>
      <trkpt lat="44.15442" lon="6.93274">
        <ele>2449.34</ele>
        <time>2017-10-15T12:49:42Z</time>
      </trkpt>
      <trkpt lat="44.15433" lon="6.93296">
        <ele>2451.46</ele>
        <time>2017-10-15T12:50:02Z</time>
      </trkpt>
      <trkpt lat="44.15423" lon="6.93318">
        <ele>2458.46</ele>
        <time>2017-10-15T12:50:32Z</time>
      </trkpt>
      <trkpt lat="44.15414" lon="6.93341">
        <ele>2464.54</ele>
        <time>2017-10-15T12:51:14Z</time>
      </trkpt>
      <trkpt lat="44.15406" lon="6.93363">
        <ele>2466.98</ele>
        <time>2017-10-15T12:51:35Z</time>
      </trkpt>
      <trkpt lat="44.15396" lon="6.93385">
        <ele>2479.52</ele>
        <time>2017-10-15T12:52:18Z</time>
      </trkpt>
      <trkpt lat="44.15385" lon="6.93404">
        <ele>2481.56</ele>
        <time>2017-10-15T12:53:11Z</time>
      </trkpt>
      <trkpt lat="44.15374" lon="6.93425">
        <ele>2490.55</ele>
        <time>2017-10-15T12:53:43Z</time>
      </trkpt>
      <trkpt lat="44.15367" lon="6.93449">
        <ele>2491.26</ele>
        <time>2017-10-15T12:54:32Z</time>
      </trkpt>
      <trkpt lat="44.15358" lon="6.93471">
        <ele>2498.24</ele>
        <time>2017-10-15T12:54:56Z</time>
      </trkpt>
      <trkpt lat="44.15353" lon="6.93497">
        <ele>2499.48</ele>
        <time>2017-10-15T12:55:29Z</time>
      </trkpt>
      <trkpt lat="44.15343" lon="6.93518">
        <ele>2502.46</ele>
        <time>2017-10-15T12:55:57Z</time>
      </trkpt>
      <trkpt lat="44.15336" lon="6.93542">
        <ele>2507.72</ele>
        <time>2017-10-15T12:56:21Z</time>
      </trkpt>
      <trkpt lat="44.15329" lon="6.93566">
        <ele>2509.64</ele>
        <time>2017-10-15T12:56:50Z</time>
      </trkpt>
      <trkpt lat="44.15324" lon="6.93591">
        <ele>2513.02</ele>
        <time>2017-10-15T12:57:23Z</time>
      </trkpt>
      <trkpt lat="44.1532" lon="6.93616">
        <ele>2513.55</ele>
        <time>2017-10-15T12:57:51Z</time>
      </trkpt>
      <trkpt lat="44.1531" lon="6.93637">
        <ele>2513.26</ele>
        <time>2017-10-15T12:58:20Z</time>
      </trkpt>
      <trkpt lat="44.15306" lon="6.93662">
        <ele>2522.22</ele>
        <time>2017-10-15T12:58:48Z</time>
      </trkpt>
      <trkpt lat="44.15293" lon="6.93681">
        <ele>2530.22</ele>
        <time>2017-10-15T12:59:27Z</time>
      </trkpt>
      <trkpt lat="44.15277" lon="6.93698">
        <ele>2534.55</ele>
        <time>2017-10-15T12:59:56Z</time>
      </trkpt>
      <trkpt lat="44.15263" lon="6.93715">
        <ele>2537.55</ele>
        <time>2017-10-15T13:00:17Z</time>
      </trkpt>
      <trkpt lat="44.15251" lon="6.93734">
        <ele>2538.67</ele>
        <time>2017-10-15T13:00:37Z</time>
      </trkpt>
      <trkpt lat="44.1524" lon="6.93755">
        <ele>2536.67</ele>
        <time>2017-10-15T13:00:57Z</time>
      </trkpt>
      <trkpt lat="44.15233" lon="6.93778">
        <ele>2535.82</ele>
        <time>2017-10-15T13:01:20Z</time>
      </trkpt>
      <trkpt lat="44.1523" lon="6.93804">
        <ele>2534.24</ele>
        <time>2017-10-15T13:01:44Z</time>
      </trkpt>
      <trkpt lat="44.1522" lon="6.93827">
        <ele>2528.01</ele>
        <time>2017-10-15T13:02:08Z</time>
      </trkpt>
      <trkpt lat="44.15219" lon="6.93853">
        <ele>2526.68</ele>
        <time>2017-10-15T13:02:27Z</time>
      </trkpt>
      <trkpt lat="44.1522" lon="6.93878">
        <ele>2523.28</ele>
        <time>2017-10-15T13:02:45Z</time>
      </trkpt>
      <trkpt lat="44.15221" lon="6.93904">
        <ele>2522.48</ele>
        <time>2017-10-15T13:03:07Z</time>
      </trkpt>
      <trkpt lat="44.15225" lon="6.9393">
        <ele>2512.48</ele>
        <time>2017-10-15T13:03:36Z</time>
      </trkpt>
      <trkpt lat="44.15235" lon="6.93952">
        <ele>2523.54</ele>
        <time>2017-10-15T13:03:55Z</time>
      </trkpt>
      <trkpt lat="44.15226" lon="6.93975">
        <ele>2520.6</ele>
        <time>2017-10-15T13:04:08Z</time>
      </trkpt>
      <trkpt lat="44.15226" lon="6.94">
        <ele>2524.55</ele>
        <time>2017-10-15T13:04:30Z</time>
      </trkpt>
      <trkpt lat="44.15234" lon="6.94023">
        <ele>2528.56</ele>
        <time>2017-10-15T13:05:22Z</time>
      </trkpt>
      <trkpt lat="44.15225" lon="6.94045">
        <ele>2526.55</ele>
        <time>2017-10-15T13:06:56Z</time>
      </trkpt>
      <trkpt lat="44.15211" lon="6.94062">
        <ele>2515.85</ele>
        <time>2017-10-15T13:07:45Z</time>
      </trkpt>
      <trkpt lat="44.15199" lon="6.94082">
        <ele>2507.88</ele>
        <time>2017-10-15T13:08:13Z</time>
      </trkpt>
      <trkpt lat="44.15194" lon="6.94107">
        <ele>2503.55</ele>
        <time>2017-10-15T13:08:36Z</time>
      </trkpt>
      <trkpt lat="44.15191" lon="6.94132">
        <ele>2504.64</ele>
        <time>2017-10-15T13:08:57Z</time>
      </trkpt>
      <trkpt lat="44.15187" lon="6.94157">
        <ele>2502.55</ele>
        <time>2017-10-15T13:09:23Z</time>
      </trkpt>
      <trkpt lat="44.15184" lon="6.94182">
        <ele>2503.52</ele>
        <time>2017-10-15T13:09:42Z</time>
      </trkpt>
      <trkpt lat="44.15175" lon="6.94204">
        <ele>2500.52</ele>
        <time>2017-10-15T13:10:02Z</time>
      </trkpt>
      <trkpt lat="44.15167" lon="6.94227">
        <ele>2499.49</ele>
        <time>2017-10-15T13:10:19Z</time>
      </trkpt>
      <trkpt lat="44.15153" lon="6.94243">
        <ele>2499.87</ele>
        <time>2017-10-15T13:10:41Z</time>
      </trkpt>
      <trkpt lat="44.15144" lon="6.94267">
        <ele>2503.53</ele>
        <time>2017-10-15T13:11:00Z</time>
      </trkpt>
      <trkpt lat="44.15133" lon="6.94287">
        <ele>2506.16</ele>
        <time>2017-10-15T13:11:20Z</time>
      </trkpt>
      <trkpt lat="44.15122" lon="6.94308">
        <ele>2503.55</ele>
        <time>2017-10-15T13:11:37Z</time>
      </trkpt>
      <trkpt lat="44.1511" lon="6.94326">
        <ele>2506.52</ele>
        <time>2017-10-15T13:11:58Z</time>
      </trkpt>
      <trkpt lat="44.15097" lon="6.94346">
        <ele>2509.55</ele>
        <time>2017-10-15T13:12:35Z</time>
      </trkpt>
      <trkpt lat="44.15091" lon="6.94369">
        <ele>2510.55</ele>
        <time>2017-10-15T13:13:28Z</time>
      </trkpt>
      <trkpt lat="44.15084" lon="6.94393">
        <ele>2515.46</ele>
        <time>2017-10-15T13:13:59Z</time>
      </trkpt>
      <trkpt lat="44.15079" lon="6.94418">
        <ele>2521.25</ele>
        <time>2017-10-15T13:14:38Z</time>
      </trkpt>
      <trkpt lat="44.15069" lon="6.94441">
        <ele>2528.15</ele>
        <time>2017-10-15T13:15:32Z</time>
      </trkpt>
      <trkpt lat="44.1506" lon="6.94464">
        <ele>2534.55</ele>
        <time>2017-10-15T13:16:12Z</time>
      </trkpt>
      <trkpt lat="44.15056" lon="6.94489">
        <ele>2542.24</ele>
        <time>2017-10-15T13:17:02Z</time>
      </trkpt>
      <trkpt lat="44.15043" lon="6.94507">
        <ele>2546.55</ele>
        <time>2017-10-15T13:17:34Z</time>
      </trkpt>
      <trkpt lat="44.15031" lon="6.94526">
        <ele>2549.85</ele>
        <time>2017-10-15T13:18:08Z</time>
      </trkpt>
      <trkpt lat="44.15017" lon="6.94542">
        <ele>2552.63</ele>
        <time>2017-10-15T13:18:35Z</time>
      </trkpt>
      <trkpt lat="44.15004" lon="6.94559">
        <ele>2555.09</ele>
        <time>2017-10-15T13:18:54Z</time>
      </trkpt>
      <trkpt lat="44.14989" lon="6.94576">
        <ele>2552.73</ele>
        <time>2017-10-15T13:19:22Z</time>
      </trkpt>
      <trkpt lat="44.14976" lon="6.94594">
        <ele>2555.52</ele>
        <time>2017-10-15T13:19:49Z</time>
      </trkpt>
      <trkpt lat="44.14962" lon="6.94611">
        <ele>2557.25</ele>
        <time>2017-10-15T13:20:14Z</time>
      </trkpt>
      <trkpt lat="44.1495" lon="6.94629">
        <ele>2558.65</ele>
        <time>2017-10-15T13:20:48Z</time>
      </trkpt>
      <trkpt lat="44.14938" lon="6.9465">
        <ele>2558.55</ele>
        <time>2017-10-15T13:21:08Z</time>
      </trkpt>
      <trkpt lat="44.14933" lon="6.94674">
        <ele>2560.43</ele>
        <time>2017-10-15T13:21:42Z</time>
      </trkpt>
      <trkpt lat="44.14925" lon="6.94697">
        <ele>2567.85</ele>
        <time>2017-10-15T13:23:34Z</time>
      </trkpt>
      <trkpt lat="44.14922" lon="6.94723">
        <ele>2554.58</ele>
        <time>2017-10-15T13:24:32Z</time>
      </trkpt>
      <trkpt lat="44.14919" lon="6.94748">
        <ele>2546.55</ele>
        <time>2017-10-15T13:25:24Z</time>
      </trkpt>
      <trkpt lat="44.14914" lon="6.94773">
        <ele>2535.92</ele>
        <time>2017-10-15T13:26:05Z</time>
      </trkpt>
      <trkpt lat="44.14912" lon="6.94798">
        <ele>2527.73</ele>
        <time>2017-10-15T13:26:37Z</time>
      </trkpt>
      <trkpt lat="44.14909" lon="6.94824">
        <ele>2512.65</ele>
        <time>2017-10-15T13:27:29Z</time>
      </trkpt>
      <trkpt lat="44.14912" lon="6.94849">
        <ele>2508.56</ele>
        <time>2017-10-15T13:28:06Z</time>
      </trkpt>
      <trkpt lat="44.14913" lon="6.94874">
        <ele>2504.64</ele>
        <time>2017-10-15T13:28:45Z</time>
      </trkpt>
      <trkpt lat="44.14916" lon="6.94901">
        <ele>2497.46</ele>
        <time>2017-10-15T13:29:18Z</time>
      </trkpt>
      <trkpt lat="44.14918" lon="6.94926">
        <ele>2489.56</ele>
        <time>2017-10-15T13:29:41Z</time>
      </trkpt>
      <trkpt lat="44.14924" lon="6.9495">
        <ele>2488.64</ele>
        <time>2017-10-15T13:30:05Z</time>
      </trkpt>
      <trkpt lat="44.14931" lon="6.94974">
        <ele>2484.64</ele>
        <time>2017-10-15T13:30:28Z</time>
      </trkpt>
      <trkpt lat="44.14932" lon="6.95">
        <ele>2484.34</ele>
        <time>2017-10-15T13:30:47Z</time>
      </trkpt>
      <trkpt lat="44.14926" lon="6.95024">
        <ele>2480.55</ele>
        <time>2017-10-15T13:31:03Z</time>
      </trkpt>
      <trkpt lat="44.14915" lon="6.95045">
        <ele>2475.79</ele>
        <time>2017-10-15T13:35:26Z</time>
      </trkpt>
      <trkpt lat="44.14901" lon="6.95029">
        <ele>2466.55</ele>
        <time>2017-10-15T13:38:02Z</time>
      </trkpt>
      <trkpt lat="44.14884" lon="6.95021">
        <ele>2460.52</ele>
        <time>2017-10-15T13:38:29Z</time>
      </trkpt>
      <trkpt lat="44.14866" lon="6.9501">
        <ele>2453.86</ele>
        <time>2017-10-15T13:39:00Z</time>
      </trkpt>
      <trkpt lat="44.14848" lon="6.95003">
        <ele>2455.13</ele>
        <time>2017-10-15T13:39:24Z</time>
      </trkpt>
      <trkpt lat="44.14833" lon="6.94989">
        <ele>2455.87</ele>
        <time>2017-10-15T13:39:46Z</time>
      </trkpt>
      <trkpt lat="44.14815" lon="6.94977">
        <ele>2436.85</ele>
        <time>2017-10-15T13:40:23Z</time>
      </trkpt>
      <trkpt lat="44.14799" lon="6.94962">
        <ele>2434.87</ele>
        <time>2017-10-15T13:40:50Z</time>
      </trkpt>
      <trkpt lat="44.14784" lon="6.94947">
        <ele>2439.3</ele>
        <time>2017-10-15T13:41:12Z</time>
      </trkpt>
      <trkpt lat="44.14767" lon="6.94935">
        <ele>2434.87</ele>
        <time>2017-10-15T13:41:49Z</time>
      </trkpt>
      <trkpt lat="44.14754" lon="6.94918">
        <ele>2423.52</ele>
        <time>2017-10-15T13:42:13Z</time>
      </trkpt>
      <trkpt lat="44.14739" lon="6.949">
        <ele>2411.36</ele>
        <time>2017-10-15T13:42:46Z</time>
      </trkpt>
      <trkpt lat="44.14724" lon="6.94884">
        <ele>2408.62</ele>
        <time>2017-10-15T13:43:08Z</time>
      </trkpt>
      <trkpt lat="44.1471" lon="6.94867">
        <ele>2410.69</ele>
        <time>2017-10-15T13:43:30Z</time>
      </trkpt>
      <trkpt lat="44.14694" lon="6.94854">
        <ele>2401.8</ele>
        <time>2017-10-15T13:44:07Z</time>
      </trkpt>
      <trkpt lat="44.14677" lon="6.94845">
        <ele>2401.14</ele>
        <time>2017-10-15T13:44:24Z</time>
      </trkpt>
      <trkpt lat="44.1466" lon="6.94837">
        <ele>2395.27</ele>
        <time>2017-10-15T13:44:56Z</time>
      </trkpt>
      <trkpt lat="44.14644" lon="6.94823">
        <ele>2397.52</ele>
        <time>2017-10-15T13:45:12Z</time>
      </trkpt>
      <trkpt lat="44.14626" lon="6.94818">
        <ele>2392.58</ele>
        <time>2017-10-15T13:45:35Z</time>
      </trkpt>
      <trkpt lat="44.14614" lon="6.94799">
        <ele>2377.16</ele>
        <time>2017-10-15T13:46:06Z</time>
      </trkpt>
      <trkpt lat="44.14596" lon="6.94806">
        <ele>2368.67</ele>
        <time>2017-10-15T13:46:25Z</time>
      </trkpt>
      <trkpt lat="44.14579" lon="6.94797">
        <ele>2366.94</ele>
        <time>2017-10-15T13:46:43Z</time>
      </trkpt>
      <trkpt lat="44.14565" lon="6.94777">
        <ele>2360.86</ele>
        <time>2017-10-15T13:47:05Z</time>
      </trkpt>
      <trkpt lat="44.14548" lon="6.94772">
        <ele>2352.94</ele>
        <time>2017-10-15T13:47:32Z</time>
      </trkpt>
      <trkpt lat="44.1453" lon="6.94779">
        <ele>2342.85</ele>
        <time>2017-10-15T13:48:34Z</time>
      </trkpt>
      <trkpt lat="44.14513" lon="6.94767">
        <ele>2336.64</ele>
        <time>2017-10-15T13:49:00Z</time>
      </trkpt>
      <trkpt lat="44.14496" lon="6.94758">
        <ele>2328.83</ele>
        <time>2017-10-15T13:49:27Z</time>
      </trkpt>
      <trkpt lat="44.1448" lon="6.94746">
        <ele>2322.55</ele>
        <time>2017-10-15T13:49:56Z</time>
      </trkpt>
      <trkpt lat="44.14469" lon="6.94726">
        <ele>2314.86</ele>
        <time>2017-10-15T13:50:21Z</time>
      </trkpt>
      <trkpt lat="44.14455" lon="6.9471">
        <ele>2313.55</ele>
        <time>2017-10-15T13:50:44Z</time>
      </trkpt>
      <trkpt lat="44.14438" lon="6.94695">
        <ele>2312.95</ele>
        <time>2017-10-15T13:51:05Z</time>
      </trkpt>
      <trkpt lat="44.14424" lon="6.94677">
        <ele>2311.28</ele>
        <time>2017-10-15T13:51:29Z</time>
      </trkpt>
      <trkpt lat="44.1441" lon="6.9466">
        <ele>2307.59</ele>
        <time>2017-10-15T13:51:53Z</time>
      </trkpt>
      <trkpt lat="44.14395" lon="6.94644">
        <ele>2302.83</ele>
        <time>2017-10-15T13:52:14Z</time>
      </trkpt>
      <trkpt lat="44.14379" lon="6.94633">
        <ele>2302.17</ele>
        <time>2017-10-15T13:52:37Z</time>
      </trkpt>
      <trkpt lat="44.14361" lon="6.94627">
        <ele>2300.88</ele>
        <time>2017-10-15T13:52:57Z</time>
      </trkpt>
      <trkpt lat="44.14345" lon="6.94616">
        <ele>2295.55</ele>
        <time>2017-10-15T13:53:22Z</time>
      </trkpt>
      <trkpt lat="44.14329" lon="6.94603">
        <ele>2290.51</ele>
        <time>2017-10-15T13:53:52Z</time>
      </trkpt>
      <trkpt lat="44.14314" lon="6.94589">
        <ele>2290.6</ele>
        <time>2017-10-15T13:54:14Z</time>
      </trkpt>
      <trkpt lat="44.14301" lon="6.94571">
        <ele>2285.26</ele>
        <time>2017-10-15T13:54:38Z</time>
      </trkpt>
      <trkpt lat="44.14286" lon="6.94555">
        <ele>2282.35</ele>
        <time>2017-10-15T13:55:01Z</time>
      </trkpt>
      <trkpt lat="44.14271" lon="6.94542">
        <ele>2282.57</ele>
        <time>2017-10-15T13:55:23Z</time>
      </trkpt>
      <trkpt lat="44.14254" lon="6.94528">
        <ele>2285.07</ele>
        <time>2017-10-15T13:55:49Z</time>
      </trkpt>
      <trkpt lat="44.14238" lon="6.94516">
        <ele>2278.58</ele>
        <time>2017-10-15T13:56:27Z</time>
      </trkpt>
      <trkpt lat="44.14222" lon="6.94502">
        <ele>2270.86</ele>
        <time>2017-10-15T13:56:49Z</time>
      </trkpt>
      <trkpt lat="44.14216" lon="6.94477">
        <ele>2271.26</ele>
        <time>2017-10-15T13:57:09Z</time>
      </trkpt>
      <trkpt lat="44.14208" lon="6.94453">
        <ele>2270.27</ele>
        <time>2017-10-15T13:57:33Z</time>
      </trkpt>
      <trkpt lat="44.14193" lon="6.94438">
        <ele>2269.64</ele>
        <time>2017-10-15T13:57:50Z</time>
      </trkpt>
      <trkpt lat="44.14181" lon="6.9442">
        <ele>2268.85</ele>
        <time>2017-10-15T13:58:08Z</time>
      </trkpt>
      <trkpt lat="44.14169" lon="6.94399">
        <ele>2266.36</ele>
        <time>2017-10-15T13:58:26Z</time>
      </trkpt>
      <trkpt lat="44.1416" lon="6.94377">
        <ele>2259.55</ele>
        <time>2017-10-15T13:58:43Z</time>
      </trkpt>
      <trkpt lat="44.1416" lon="6.94351">
        <ele>2261.24</ele>
        <time>2017-10-15T13:59:00Z</time>
      </trkpt>
      <trkpt lat="44.14155" lon="6.94325">
        <ele>2259.55</ele>
        <time>2017-10-15T13:59:15Z</time>
      </trkpt>
      <trkpt lat="44.14153" lon="6.94299">
        <ele>2257.46</ele>
        <time>2017-10-15T13:59:54Z</time>
      </trkpt>
      <trkpt lat="44.14144" lon="6.94276">
        <ele>2257.34</ele>
        <time>2017-10-15T14:00:12Z</time>
      </trkpt>
      <trkpt lat="44.14133" lon="6.94255">
        <ele>2253.88</ele>
        <time>2017-10-15T14:00:31Z</time>
      </trkpt>
      <trkpt lat="44.14121" lon="6.94235">
        <ele>2253.25</ele>
        <time>2017-10-15T14:00:47Z</time>
      </trkpt>
      <trkpt lat="44.1411" lon="6.94213">
        <ele>2255.27</ele>
        <time>2017-10-15T14:01:05Z</time>
      </trkpt>
      <trkpt lat="44.14095" lon="6.94199">
        <ele>2258.27</ele>
        <time>2017-10-15T14:01:36Z</time>
      </trkpt>
      <trkpt lat="44.1409" lon="6.94174">
        <ele>2258.64</ele>
        <time>2017-10-15T14:02:18Z</time>
      </trkpt>
      <trkpt lat="44.1408" lon="6.94152">
        <ele>2254.64</ele>
        <time>2017-10-15T14:02:41Z</time>
      </trkpt>
      <trkpt lat="44.14068" lon="6.94133">
        <ele>2253.56</ele>
        <time>2017-10-15T14:03:02Z</time>
      </trkpt>
      <trkpt lat="44.14055" lon="6.94114">
        <ele>2249.63</ele>
        <time>2017-10-15T14:03:20Z</time>
      </trkpt>
      <trkpt lat="44.14045" lon="6.94093">
        <ele>2247.94</ele>
        <time>2017-10-15T14:03:36Z</time>
      </trkpt>
      <trkpt lat="44.14042" lon="6.94067">
        <ele>2241.11</ele>
        <time>2017-10-15T14:03:56Z</time>
      </trkpt>
      <trkpt lat="44.14034" lon="6.94044">
        <ele>2239.76</ele>
        <time>2017-10-15T14:20:17Z</time>
      </trkpt>
      <trkpt lat="44.14016" lon="6.94037">
        <ele>2235.55</ele>
        <time>2017-10-15T14:20:40Z</time>
      </trkpt>
      <trkpt lat="44.13997" lon="6.94032">
        <ele>2235.52</ele>
        <time>2017-10-15T14:21:01Z</time>
      </trkpt>
      <trkpt lat="44.13981" lon="6.94019">
        <ele>2230.34</ele>
        <time>2017-10-15T14:21:22Z</time>
      </trkpt>
      <trkpt lat="44.13964" lon="6.9401">
        <ele>2224.61</ele>
        <time>2017-10-15T14:21:41Z</time>
      </trkpt>
      <trkpt lat="44.13946" lon="6.9401">
        <ele>2223.65</ele>
        <time>2017-10-15T14:21:57Z</time>
      </trkpt>
      <trkpt lat="44.13933" lon="6.9399">
        <ele>2221.28</ele>
        <time>2017-10-15T14:22:16Z</time>
      </trkpt>
      <trkpt lat="44.13921" lon="6.93971">
        <ele>2217.64</ele>
        <time>2017-10-15T14:22:34Z</time>
      </trkpt>
      <trkpt lat="44.13908" lon="6.93953">
        <ele>2213.64</ele>
        <time>2017-10-15T14:22:55Z</time>
      </trkpt>
      <trkpt lat="44.13898" lon="6.93931">
        <ele>2208.57</ele>
        <time>2017-10-15T14:23:14Z</time>
      </trkpt>
      <trkpt lat="44.13887" lon="6.9391">
        <ele>2200.61</ele>
        <time>2017-10-15T14:23:35Z</time>
      </trkpt>
      <trkpt lat="44.13873" lon="6.93892">
        <ele>2199.55</ele>
        <time>2017-10-15T14:23:53Z</time>
      </trkpt>
      <trkpt lat="44.1386" lon="6.93873">
        <ele>2197.54</ele>
        <time>2017-10-15T14:24:12Z</time>
      </trkpt>
      <trkpt lat="44.13848" lon="6.93853">
        <ele>2196.54</ele>
        <time>2017-10-15T14:24:32Z</time>
      </trkpt>
      <trkpt lat="44.13839" lon="6.9383">
        <ele>2192.85</ele>
        <time>2017-10-15T14:24:51Z</time>
      </trkpt>
      <trkpt lat="44.13833" lon="6.93805">
        <ele>2182.68</ele>
        <time>2017-10-15T14:25:12Z</time>
      </trkpt>
      <trkpt lat="44.13824" lon="6.93782">
        <ele>2178.37</ele>
        <time>2017-10-15T14:25:30Z</time>
      </trkpt>
      <trkpt lat="44.13813" lon="6.93761">
        <ele>2176.75</ele>
        <time>2017-10-15T14:25:49Z</time>
      </trkpt>
      <trkpt lat="44.138" lon="6.93742">
        <ele>2173.06</ele>
        <time>2017-10-15T14:26:07Z</time>
      </trkpt>
      <trkpt lat="44.13791" lon="6.93721">
        <ele>2172.64</ele>
        <time>2017-10-15T14:26:27Z</time>
      </trkpt>
      <trkpt lat="44.13776" lon="6.93704">
        <ele>2172.55</ele>
        <time>2017-10-15T14:26:44Z</time>
      </trkpt>
      <trkpt lat="44.13765" lon="6.93685">
        <ele>2171.76</ele>
        <time>2017-10-15T14:27:00Z</time>
      </trkpt>
      <trkpt lat="44.13753" lon="6.93665">
        <ele>2167.64</ele>
        <time>2017-10-15T14:27:20Z</time>
      </trkpt>
      <trkpt lat="44.1374" lon="6.93646">
        <ele>2162.85</ele>
        <time>2017-10-15T14:27:42Z</time>
      </trkpt>
      <trkpt lat="44.13726" lon="6.93628">
        <ele>2156.91</ele>
        <time>2017-10-15T14:27:58Z</time>
      </trkpt>
      <trkpt lat="44.13712" lon="6.9361">
        <ele>2154.55</ele>
        <time>2017-10-15T14:28:17Z</time>
      </trkpt>
      <trkpt lat="44.13699" lon="6.93593">
        <ele>2148.65</ele>
        <time>2017-10-15T14:28:37Z</time>
      </trkpt>
      <trkpt lat="44.13686" lon="6.93573">
        <ele>2141.67</ele>
        <time>2017-10-15T14:28:57Z</time>
      </trkpt>
      <trkpt lat="44.13678" lon="6.9355">
        <ele>2135.34</ele>
        <time>2017-10-15T14:29:16Z</time>
      </trkpt>
      <trkpt lat="44.13666" lon="6.93528">
        <ele>2132.53</ele>
        <time>2017-10-15T14:29:33Z</time>
      </trkpt>
      <trkpt lat="44.13662" lon="6.93504">
        <ele>2135.63</ele>
        <time>2017-10-15T14:29:56Z</time>
      </trkpt>
      <trkpt lat="44.13667" lon="6.93479">
        <ele>2130.57</ele>
        <time>2017-10-15T14:30:17Z</time>
      </trkpt>
      <trkpt lat="44.1368" lon="6.9346">
        <ele>2125.64</ele>
        <time>2017-10-15T14:30:43Z</time>
      </trkpt>
      <trkpt lat="44.1369" lon="6.93439">
        <ele>2116.86</ele>
        <time>2017-10-15T14:31:02Z</time>
      </trkpt>
      <trkpt lat="44.13699" lon="6.93417">
        <ele>2108.79</ele>
        <time>2017-10-15T14:31:23Z</time>
      </trkpt>
      <trkpt lat="44.13717" lon="6.93414">
        <ele>2102.85</ele>
        <time>2017-10-15T14:31:46Z</time>
      </trkpt>
      <trkpt lat="44.13731" lon="6.93396">
        <ele>2097.64</ele>
        <time>2017-10-15T14:32:08Z</time>
      </trkpt>
      <trkpt lat="44.13748" lon="6.93386">
        <ele>2095.85</ele>
        <time>2017-10-15T14:32:30Z</time>
      </trkpt>
      <trkpt lat="44.13765" lon="6.93377">
        <ele>2090.25</ele>
        <time>2017-10-15T14:32:52Z</time>
      </trkpt>
      <trkpt lat="44.13782" lon="6.93366">
        <ele>2082.38</ele>
        <time>2017-10-15T14:33:15Z</time>
      </trkpt>
      <trkpt lat="44.1379" lon="6.93343">
        <ele>2078.32</ele>
        <time>2017-10-15T14:33:41Z</time>
      </trkpt>
      <trkpt lat="44.13803" lon="6.93323">
        <ele>2073.27</ele>
        <time>2017-10-15T14:33:59Z</time>
      </trkpt>
      <trkpt lat="44.13819" lon="6.93309">
        <ele>2074.46</ele>
        <time>2017-10-15T14:34:15Z</time>
      </trkpt>
      <trkpt lat="44.13834" lon="6.93294">
        <ele>2073.91</ele>
        <time>2017-10-15T14:34:31Z</time>
      </trkpt>
      <trkpt lat="44.13848" lon="6.93277">
        <ele>2071.65</ele>
        <time>2017-10-15T14:34:47Z</time>
      </trkpt>
      <trkpt lat="44.13864" lon="6.93267">
        <ele>2070.56</ele>
        <time>2017-10-15T14:35:02Z</time>
      </trkpt>
      <trkpt lat="44.13882" lon="6.93262">
        <ele>2069.63</ele>
        <time>2017-10-15T14:35:19Z</time>
      </trkpt>
      <trkpt lat="44.13899" lon="6.93252">
        <ele>2067.85</ele>
        <time>2017-10-15T14:35:37Z</time>
      </trkpt>
      <trkpt lat="44.13917" lon="6.93246">
        <ele>2070.21</ele>
        <time>2017-10-15T14:35:55Z</time>
      </trkpt>
      <trkpt lat="44.13927" lon="6.93224">
        <ele>2066.76</ele>
        <time>2017-10-15T14:36:19Z</time>
      </trkpt>
      <trkpt lat="44.13933" lon="6.932">
        <ele>2062.85</ele>
        <time>2017-10-15T14:36:45Z</time>
      </trkpt>
      <trkpt lat="44.13919" lon="6.93183">
        <ele>2058.55</ele>
        <time>2017-10-15T14:37:13Z</time>
      </trkpt>
      <trkpt lat="44.13901" lon="6.9318">
        <ele>2055.64</ele>
        <time>2017-10-15T14:37:41Z</time>
      </trkpt>
      <trkpt lat="44.13911" lon="6.93158">
        <ele>2044.7</ele>
        <time>2017-10-15T14:38:16Z</time>
      </trkpt>
      <trkpt lat="44.13916" lon="6.93134">
        <ele>2036.55</ele>
        <time>2017-10-15T14:39:07Z</time>
      </trkpt>
      <trkpt lat="44.13928" lon="6.93114">
        <ele>2025.55</ele>
        <time>2017-10-15T14:39:43Z</time>
      </trkpt>
      <trkpt lat="44.13912" lon="6.93101">
        <ele>2022.61</ele>
        <time>2017-10-15T14:40:33Z</time>
      </trkpt>
      <trkpt lat="44.13896" lon="6.93089">
        <ele>2010.94</ele>
        <time>2017-10-15T14:41:10Z</time>
      </trkpt>
      <trkpt lat="44.1388" lon="6.93078">
        <ele>2001.62</ele>
        <time>2017-10-15T14:41:51Z</time>
      </trkpt>
      <trkpt lat="44.13864" lon="6.93065">
        <ele>1998.85</ele>
        <time>2017-10-15T14:42:42Z</time>
      </trkpt>
      <trkpt lat="44.13846" lon="6.93063">
        <ele>1992.85</ele>
        <time>2017-10-15T14:43:12Z</time>
      </trkpt>
      <trkpt lat="44.13828" lon="6.93055">
        <ele>1980.66</ele>
        <time>2017-10-15T14:43:38Z</time>
      </trkpt>
      <trkpt lat="44.13811" lon="6.93044">
        <ele>1977.64</ele>
        <time>2017-10-15T14:44:03Z</time>
      </trkpt>
      <trkpt lat="44.13796" lon="6.93029">
        <ele>1973.73</ele>
        <time>2017-10-15T14:44:23Z</time>
      </trkpt>
      <trkpt lat="44.13782" lon="6.93012">
        <ele>1971.02</ele>
        <time>2017-10-15T14:44:43Z</time>
      </trkpt>
      <trkpt lat="44.13767" lon="6.92998">
        <ele>1973.79</ele>
        <time>2017-10-15T14:45:00Z</time>
      </trkpt>
      <trkpt lat="44.13749" lon="6.92993">
        <ele>1972.94</ele>
        <time>2017-10-15T14:45:16Z</time>
      </trkpt>
      <trkpt lat="44.1373" lon="6.92996">
        <ele>1974.54</ele>
        <time>2017-10-15T14:45:33Z</time>
      </trkpt>
      <trkpt lat="44.1372" lon="6.93016">
        <ele>1968.88</ele>
        <time>2017-10-15T14:45:55Z</time>
      </trkpt>
      <trkpt lat="44.13702" lon="6.9302">
        <ele>1966.88</ele>
        <time>2017-10-15T14:46:15Z</time>
      </trkpt>
      <trkpt lat="44.13687" lon="6.93006">
        <ele>1957.73</ele>
        <time>2017-10-15T14:46:36Z</time>
      </trkpt>
      <trkpt lat="44.13673" lon="6.92989">
        <ele>1959.64</ele>
        <time>2017-10-15T14:47:05Z</time>
      </trkpt>
      <trkpt lat="44.13659" lon="6.92972">
        <ele>1947.58</ele>
        <time>2017-10-15T14:47:34Z</time>
      </trkpt>
      <trkpt lat="44.1364" lon="6.9297">
        <ele>1942.85</ele>
        <time>2017-10-15T14:47:59Z</time>
      </trkpt>
      <trkpt lat="44.13622" lon="6.9297">
        <ele>1940.58</ele>
        <time>2017-10-15T14:48:21Z</time>
      </trkpt>
      <trkpt lat="44.13604" lon="6.92967">
        <ele>1931.6</ele>
        <time>2017-10-15T14:48:45Z</time>
      </trkpt>
      <trkpt lat="44.13585" lon="6.92967">
        <ele>1930.55</ele>
        <time>2017-10-15T14:49:14Z</time>
      </trkpt>
      <trkpt lat="44.13566" lon="6.92971">
        <ele>1930.73</ele>
        <time>2017-10-15T14:49:38Z</time>
      </trkpt>
      <trkpt lat="44.13552" lon="6.92955">
        <ele>1926.34</ele>
        <time>2017-10-15T14:50:06Z</time>
      </trkpt>
      <trkpt lat="44.13534" lon="6.92948">
        <ele>1917.55</ele>
        <time>2017-10-15T14:50:29Z</time>
      </trkpt>
      <trkpt lat="44.13516" lon="6.92943">
        <ele>1919.94</ele>
        <time>2017-10-15T14:50:46Z</time>
      </trkpt>
      <trkpt lat="44.13501" lon="6.92929">
        <ele>1916.63</ele>
        <time>2017-10-15T14:51:07Z</time>
      </trkpt>
      <trkpt lat="44.13489" lon="6.92909">
        <ele>1912.94</ele>
        <time>2017-10-15T14:51:22Z</time>
      </trkpt>
      <trkpt lat="44.13481" lon="6.92887">
        <ele>1908.5</ele>
        <time>2017-10-15T14:51:43Z</time>
      </trkpt>
      <trkpt lat="44.13466" lon="6.92872">
        <ele>1907.56</ele>
        <time>2017-10-15T14:52:01Z</time>
      </trkpt>
      <trkpt lat="44.13455" lon="6.9285">
        <ele>1900.94</ele>
        <time>2017-10-15T14:52:21Z</time>
      </trkpt>
      <trkpt lat="44.13446" lon="6.92828">
        <ele>1896.64</ele>
        <time>2017-10-15T14:52:38Z</time>
      </trkpt>
      <trkpt lat="44.13435" lon="6.92807">
        <ele>1892.85</ele>
        <time>2017-10-15T14:52:58Z</time>
      </trkpt>
      <trkpt lat="44.13422" lon="6.92788">
        <ele>1887.94</ele>
        <time>2017-10-15T14:53:18Z</time>
      </trkpt>
      <trkpt lat="44.13407" lon="6.92773">
        <ele>1885.67</ele>
        <time>2017-10-15T14:53:41Z</time>
      </trkpt>
      <trkpt lat="44.13424" lon="6.92762">
        <ele>1879.55</ele>
        <time>2017-10-15T14:54:34Z</time>
      </trkpt>
      <trkpt lat="44.13443" lon="6.92763">
        <ele>1877.82</ele>
        <time>2017-10-15T14:54:51Z</time>
      </trkpt>
      <trkpt lat="44.13462" lon="6.92764">
        <ele>1868.8</ele>
        <time>2017-10-15T14:55:13Z</time>
      </trkpt>
      <trkpt lat="44.1348" lon="6.92761">
        <ele>1866.73</ele>
        <time>2017-10-15T14:55:34Z</time>
      </trkpt>
      <trkpt lat="44.1349" lon="6.92739">
        <ele>1864.55</ele>
        <time>2017-10-15T14:55:58Z</time>
      </trkpt>
      <trkpt lat="44.13487" lon="6.92714">
        <ele>1856.76</ele>
        <time>2017-10-15T14:57:42Z</time>
      </trkpt>
      <trkpt lat="44.13472" lon="6.92699">
        <ele>1854.28</ele>
        <time>2017-10-15T14:58:04Z</time>
      </trkpt>
      <trkpt lat="44.13457" lon="6.92683">
        <ele>1848.59</ele>
        <time>2017-10-15T14:58:26Z</time>
      </trkpt>
      <trkpt lat="44.13442" lon="6.92667">
        <ele>1842.57</ele>
        <time>2017-10-15T14:58:53Z</time>
      </trkpt>
      <trkpt lat="44.13426" lon="6.92656">
        <ele>1842.47</ele>
        <time>2017-10-15T14:59:15Z</time>
      </trkpt>
      <trkpt lat="44.13407" lon="6.92649">
        <ele>1841.16</ele>
        <time>2017-10-15T14:59:37Z</time>
      </trkpt>
      <trkpt lat="44.13389" lon="6.92638">
        <ele>1825.64</ele>
        <time>2017-10-15T15:00:06Z</time>
      </trkpt>
      <trkpt lat="44.13374" lon="6.92621">
        <ele>1825.53</ele>
        <time>2017-10-15T15:00:27Z</time>
      </trkpt>
      <trkpt lat="44.13357" lon="6.92611">
        <ele>1822.88</ele>
        <time>2017-10-15T15:00:47Z</time>
      </trkpt>
      <trkpt lat="44.13343" lon="6.92593">
        <ele>1817.57</ele>
        <time>2017-10-15T15:01:12Z</time>
      </trkpt>
      <trkpt lat="44.13326" lon="6.92582">
        <ele>1818.62</ele>
        <time>2017-10-15T15:01:29Z</time>
      </trkpt>
      <trkpt lat="44.13308" lon="6.92575">
        <ele>1821.27</ele>
        <time>2017-10-15T15:01:46Z</time>
      </trkpt>
      <trkpt lat="44.13291" lon="6.92564">
        <ele>1815.55</ele>
        <time>2017-10-15T15:02:09Z</time>
      </trkpt>
      <trkpt lat="44.13277" lon="6.92547">
        <ele>1814.45</ele>
        <time>2017-10-15T15:02:29Z</time>
      </trkpt>
      <trkpt lat="44.13261" lon="6.92534">
        <ele>1807.85</ele>
        <time>2017-10-15T15:02:54Z</time>
      </trkpt>
      <trkpt lat="44.13267" lon="6.9251">
        <ele>1798.55</ele>
        <time>2017-10-15T15:04:45Z</time>
      </trkpt>
      <trkpt lat="44.13286" lon="6.92511">
        <ele>1801.46</ele>
        <time>2017-10-15T15:05:14Z</time>
      </trkpt>
      <trkpt lat="44.13304" lon="6.92508">
        <ele>1803.55</ele>
        <time>2017-10-15T15:05:30Z</time>
      </trkpt>
      <trkpt lat="44.13322" lon="6.92505">
        <ele>1800.54</ele>
        <time>2017-10-15T15:06:50Z</time>
      </trkpt>
      <trkpt lat="44.1334" lon="6.92505">
        <ele>1802.24</ele>
        <time>2017-10-15T15:07:07Z</time>
      </trkpt>
      <trkpt lat="44.13358" lon="6.92508">
        <ele>1802.53</ele>
        <time>2017-10-15T15:07:32Z</time>
      </trkpt>
      <trkpt lat="44.13376" lon="6.92512">
        <ele>1801.64</ele>
        <time>2017-10-15T15:07:47Z</time>
      </trkpt>
      <trkpt lat="44.13394" lon="6.92519">
        <ele>1802.24</ele>
        <time>2017-10-15T15:08:02Z</time>
      </trkpt>
      <trkpt lat="44.13412" lon="6.92529">
        <ele>1803.44</ele>
        <time>2017-10-15T15:08:19Z</time>
      </trkpt>
      <trkpt lat="44.1343" lon="6.92531">
        <ele>1804.52</ele>
        <time>2017-10-15T15:08:34Z</time>
      </trkpt>
      <trkpt lat="44.13449" lon="6.92532">
        <ele>1802.55</ele>
        <time>2017-10-15T15:08:51Z</time>
      </trkpt>
      <trkpt lat="44.13466" lon="6.92542">
        <ele>1802.28</ele>
        <time>2017-10-15T15:09:06Z</time>
      </trkpt>
      <trkpt lat="44.13484" lon="6.9254">
        <ele>1802.33</ele>
        <time>2017-10-15T15:09:22Z</time>
      </trkpt>
      <trkpt lat="44.13502" lon="6.9255">
        <ele>1802.25</ele>
        <time>2017-10-15T15:09:42Z</time>
      </trkpt>
      <trkpt lat="44.13519" lon="6.92561">
        <ele>1801.85</ele>
        <time>2017-10-15T15:10:02Z</time>
      </trkpt>
      <trkpt lat="44.13537" lon="6.92557">
        <ele>1800.48</ele>
        <time>2017-10-15T15:10:18Z</time>
      </trkpt>
      <trkpt lat="44.13545" lon="6.92534">
        <ele>1797.64</ele>
        <time>2017-10-15T15:10:52Z</time>
      </trkpt>
      <trkpt lat="44.13554" lon="6.92557">
        <ele>1793.22</ele>
        <time>2017-10-15T15:11:14Z</time>
      </trkpt>
      <trkpt lat="44.13565" lon="6.92579">
        <ele>1793.22</ele>
        <time>2017-10-15T15:11:32Z</time>
      </trkpt>
      <trkpt lat="44.13582" lon="6.92573">
        <ele>1793.25</ele>
        <time>2017-10-15T15:12:04Z</time>
      </trkpt>
      <trkpt lat="44.13596" lon="6.92556">
        <ele>1794.56</ele>
        <time>2017-10-15T15:12:21Z</time>
      </trkpt>
      <trkpt lat="44.13611" lon="6.92541">
        <ele>1795.55</ele>
        <time>2017-10-15T15:12:40Z</time>
      </trkpt>
      <trkpt lat="44.13627" lon="6.92529">
        <ele>1787.56</ele>
        <time>2017-10-15T15:13:18Z</time>
      </trkpt>
      <trkpt lat="44.1364" lon="6.92549">
        <ele>1782.57</ele>
        <time>2017-10-15T15:13:40Z</time>
      </trkpt>
      <trkpt lat="44.13653" lon="6.92568">
        <ele>1781.31</ele>
        <time>2017-10-15T15:13:58Z</time>
      </trkpt>
      <trkpt lat="44.13671" lon="6.92566">
        <ele>1781.82</ele>
        <time>2017-10-15T15:14:17Z</time>
      </trkpt>
      <trkpt lat="44.13686" lon="6.92578">
        <ele>1781.54</ele>
        <time>2017-10-15T15:14:35Z</time>
      </trkpt>
      <trkpt lat="44.13701" lon="6.92563">
        <ele>1782.46</ele>
        <time>2017-10-15T15:14:55Z</time>
      </trkpt>
      <trkpt lat="44.13716" lon="6.92547">
        <ele>1783.46</ele>
        <time>2017-10-15T15:15:16Z</time>
      </trkpt>
      <trkpt lat="44.13734" lon="6.92544">
        <ele>1784.6</ele>
        <time>2017-10-15T15:15:31Z</time>
      </trkpt>
      <trkpt lat="44.13751" lon="6.92532">
        <ele>1784.55</ele>
        <time>2017-10-15T15:15:49Z</time>
      </trkpt>
      <trkpt lat="44.1377" lon="6.92531">
        <ele>1785.06</ele>
        <time>2017-10-15T15:16:06Z</time>
      </trkpt>
      <trkpt lat="44.13783" lon="6.92548">
        <ele>1774.95</ele>
        <time>2017-10-15T15:16:28Z</time>
      </trkpt>
      <trkpt lat="44.13801" lon="6.92542">
        <ele>1770.52</ele>
        <time>2017-10-15T15:16:58Z</time>
      </trkpt>
      <trkpt lat="44.13805" lon="6.92515">
        <ele>1761.06</ele>
        <time>2017-10-15T15:17:58Z</time>
      </trkpt>
      <trkpt lat="44.13823" lon="6.92507">
        <ele>1765.55</ele>
        <time>2017-10-15T15:18:43Z</time>
      </trkpt>
      <trkpt lat="44.13841" lon="6.92502">
        <ele>1763.88</ele>
        <time>2017-10-15T15:19:01Z</time>
      </trkpt>
      <trkpt lat="44.1386" lon="6.92507">
        <ele>1758.06</ele>
        <time>2017-10-15T15:19:21Z</time>
      </trkpt>
      <trkpt lat="44.13874" lon="6.92491">
        <ele>1742.73</ele>
        <time>2017-10-15T15:20:24Z</time>
      </trkpt>
      <trkpt lat="44.13894" lon="6.92491">
        <ele>1741.25</ele>
        <time>2017-10-15T15:20:41Z</time>
      </trkpt>
      <trkpt lat="44.13904" lon="6.92469">
        <ele>1732.66</ele>
        <time>2017-10-15T15:21:16Z</time>
      </trkpt>
      <trkpt lat="44.13919" lon="6.92453">
        <ele>1732.61</ele>
        <time>2017-10-15T15:21:51Z</time>
      </trkpt>
      <trkpt lat="44.13932" lon="6.92436">
        <ele>1722.86</ele>
        <time>2017-10-15T15:22:23Z</time>
      </trkpt>
      <trkpt lat="44.13925" lon="6.92412">
        <ele>1711.67</ele>
        <time>2017-10-15T15:22:50Z</time>
      </trkpt>
      <trkpt lat="44.13927" lon="6.92386">
        <ele>1705.64</ele>
        <time>2017-10-15T15:23:12Z</time>
      </trkpt>
      <trkpt lat="44.13913" lon="6.92369">
        <ele>1701.2</ele>
        <time>2017-10-15T15:23:35Z</time>
      </trkpt>
      <trkpt lat="44.13911" lon="6.92344">
        <ele>1694.86</ele>
        <time>2017-10-15T15:23:57Z</time>
      </trkpt>
      <trkpt lat="44.13908" lon="6.92318">
        <ele>1690.67</ele>
        <time>2017-10-15T15:24:15Z</time>
      </trkpt>
      <trkpt lat="44.13909" lon="6.92292">
        <ele>1686.85</ele>
        <time>2017-10-15T15:24:32Z</time>
      </trkpt>
      <trkpt lat="44.13893" lon="6.92278">
        <ele>1680.44</ele>
        <time>2017-10-15T15:25:02Z</time>
      </trkpt>
      <trkpt lat="44.1388" lon="6.92261">
        <ele>1680.58</ele>
        <time>2017-10-15T15:25:24Z</time>
      </trkpt>
      <trkpt lat="44.13868" lon="6.92241">
        <ele>1678.65</ele>
        <time>2017-10-15T15:25:45Z</time>
      </trkpt>
      <trkpt lat="44.13856" lon="6.92222">
        <ele>1677.46</ele>
        <time>2017-10-15T15:26:06Z</time>
      </trkpt>
      <trkpt lat="44.13841" lon="6.92207">
        <ele>1675.87</ele>
        <time>2017-10-15T15:26:21Z</time>
      </trkpt>
      <trkpt lat="44.13822" lon="6.92203">
        <ele>1670.01</ele>
        <time>2017-10-15T15:26:39Z</time>
      </trkpt>
      <trkpt lat="44.13804" lon="6.92203">
        <ele>1668.07</ele>
        <time>2017-10-15T15:27:01Z</time>
      </trkpt>
      <trkpt lat="44.13786" lon="6.92195">
        <ele>1668.17</ele>
        <time>2017-10-15T15:27:12Z</time>
      </trkpt>
      <trkpt lat="44.13768" lon="6.92184">
        <ele>1665.93</ele>
        <time>2017-10-15T15:27:30Z</time>
      </trkpt>
      <trkpt lat="44.13763" lon="6.92159">
        <ele>1648.5</ele>
        <time>2017-10-15T15:28:18Z</time>
      </trkpt>
      <trkpt lat="44.13755" lon="6.92135">
        <ele>1633.96</ele>
        <time>2017-10-15T15:29:07Z</time>
      </trkpt>
      <trkpt lat="44.13754" lon="6.9211">
        <ele>1623.67</ele>
        <time>2017-10-15T15:29:38Z</time>
      </trkpt>
      <trkpt lat="44.13735" lon="6.92114">
        <ele>1617.55</ele>
        <time>2017-10-15T15:30:06Z</time>
      </trkpt>
      <trkpt lat="44.13722" lon="6.9213">
        <ele>1613.51</ele>
        <time>2017-10-15T15:30:40Z</time>
      </trkpt>
      <trkpt lat="44.13707" lon="6.92114">
        <ele>1602.56</ele>
        <time>2017-10-15T15:31:15Z</time>
      </trkpt>
      <trkpt lat="44.13709" lon="6.92086">
        <ele>1598.34</ele>
        <time>2017-10-15T15:31:37Z</time>
      </trkpt>
      <trkpt lat="44.13716" lon="6.92063">
        <ele>1598.55</ele>
        <time>2017-10-15T15:31:56Z</time>
      </trkpt>
      <trkpt lat="44.13729" lon="6.92044">
        <ele>1598.57</ele>
        <time>2017-10-15T15:32:15Z</time>
      </trkpt>
      <trkpt lat="44.13728" lon="6.92018">
        <ele>1591.65</ele>
        <time>2017-10-15T15:32:38Z</time>
      </trkpt>
      <trkpt lat="44.13723" lon="6.91994">
        <ele>1582.63</ele>
        <time>2017-10-15T15:33:35Z</time>
      </trkpt>
      <trkpt lat="44.13715" lon="6.91971">
        <ele>1573.54</ele>
        <time>2017-10-15T15:34:13Z</time>
      </trkpt>
      <trkpt lat="44.13708" lon="6.91946">
        <ele>1575.54</ele>
        <time>2017-10-15T15:35:07Z</time>
      </trkpt>
      <trkpt lat="44.13713" lon="6.91922">
        <ele>1573.54</ele>
        <time>2017-10-15T15:35:28Z</time>
      </trkpt>
      <trkpt lat="44.13723" lon="6.91899">
        <ele>1574.78</ele>
        <time>2017-10-15T15:35:53Z</time>
      </trkpt>
      <trkpt lat="44.13719" lon="6.91873">
        <ele>1567.61</ele>
        <time>2017-10-15T15:36:18Z</time>
      </trkpt>
      <trkpt lat="44.13706" lon="6.91854">
        <ele>1568.6</ele>
        <time>2017-10-15T15:36:39Z</time>
      </trkpt>
      <trkpt lat="44.13712" lon="6.91828">
        <ele>1563.24</ele>
        <time>2017-10-15T15:37:00Z</time>
      </trkpt>
      <trkpt lat="44.13703" lon="6.91805">
        <ele>1560.55</ele>
        <time>2017-10-15T15:37:19Z</time>
      </trkpt>
      <trkpt lat="44.1369" lon="6.91786">
        <ele>1558.34</ele>
        <time>2017-10-15T15:37:43Z</time>
      </trkpt>
      <trkpt lat="44.13676" lon="6.9177">
        <ele>1555.85</ele>
        <time>2017-10-15T15:38:00Z</time>
      </trkpt>
      <trkpt lat="44.13662" lon="6.91754">
        <ele>1552.59</ele>
        <time>2017-10-15T15:38:20Z</time>
      </trkpt>
      <trkpt lat="44.13647" lon="6.91737">
        <ele>1552.25</ele>
        <time>2017-10-15T15:38:37Z</time>
      </trkpt>
      <trkpt lat="44.13629" lon="6.91726">
        <ele>1543.65</ele>
        <time>2017-10-15T15:38:59Z</time>
      </trkpt>
      <trkpt lat="44.13617" lon="6.91707">
        <ele>1541.78</ele>
        <time>2017-10-15T15:39:18Z</time>
      </trkpt>
      <trkpt lat="44.13611" lon="6.91683">
        <ele>1534.55</ele>
        <time>2017-10-15T15:39:40Z</time>
      </trkpt>
      <trkpt lat="44.13614" lon="6.91658">
        <ele>1532.73</ele>
        <time>2017-10-15T15:39:58Z</time>
      </trkpt>
      <trkpt lat="44.13613" lon="6.91632">
        <ele>1529.78</ele>
        <time>2017-10-15T15:40:56Z</time>
      </trkpt>
      <trkpt lat="44.13602" lon="6.9161">
        <ele>1524.55</ele>
        <time>2017-10-15T15:42:13Z</time>
      </trkpt>
      <trkpt lat="44.13584" lon="6.91607">
        <ele>1518.64</ele>
        <time>2017-10-15T15:42:34Z</time>
      </trkpt>
      <trkpt lat="44.13595" lon="6.91586">
        <ele>1512.49</ele>
        <time>2017-10-15T15:42:57Z</time>
      </trkpt>
      <trkpt lat="44.13588" lon="6.91563">
        <ele>1511.83</ele>
        <time>2017-10-15T15:43:51Z</time>
      </trkpt>
      <trkpt lat="44.13607" lon="6.91559">
        <ele>1507.57</ele>
        <time>2017-10-15T15:44:12Z</time>
      </trkpt>
      <trkpt lat="44.1361" lon="6.91534">
        <ele>1499.61</ele>
        <time>2017-10-15T15:44:51Z</time>
      </trkpt>
      <trkpt lat="44.13598" lon="6.91515">
        <ele>1496.46</ele>
        <time>2017-10-15T15:45:13Z</time>
      </trkpt>
      <trkpt lat="44.13591" lon="6.91492">
        <ele>1489.68</ele>
        <time>2017-10-15T15:45:35Z</time>
      </trkpt>
      <trkpt lat="44.1358" lon="6.91472">
        <ele>1485.64</ele>
        <time>2017-10-15T15:45:57Z</time>
      </trkpt>
      <trkpt lat="44.13581" lon="6.91446">
        <ele>1480.57</ele>
        <time>2017-10-15T15:46:25Z</time>
      </trkpt>
      <trkpt lat="44.13595" lon="6.91429">
        <ele>1477.49</ele>
        <time>2017-10-15T15:46:41Z</time>
      </trkpt>
      <trkpt lat="44.13581" lon="6.91412">
        <ele>1472.82</ele>
        <time>2017-10-15T15:47:07Z</time>
      </trkpt>
      <trkpt lat="44.13592" lon="6.91392">
        <ele>1470.58</ele>
        <time>2017-10-15T15:47:27Z</time>
      </trkpt>
      <trkpt lat="44.1361" lon="6.91386">
        <ele>1465.55</ele>
        <time>2017-10-15T15:47:49Z</time>
      </trkpt>
      <trkpt lat="44.13627" lon="6.91394">
        <ele>1460.36</ele>
        <time>2017-10-15T15:48:09Z</time>
      </trkpt>
      <trkpt lat="44.13643" lon="6.91407">
        <ele>1458.67</ele>
        <time>2017-10-15T15:48:31Z</time>
      </trkpt>
      <trkpt lat="44.13652" lon="6.91429">
        <ele>1444.89</ele>
        <time>2017-10-15T15:49:16Z</time>
      </trkpt>
      <trkpt lat="44.13666" lon="6.91447">
        <ele>1440.51</ele>
        <time>2017-10-15T15:49:30Z</time>
      </trkpt>
      <trkpt lat="44.13683" lon="6.91441">
        <ele>1439.42</ele>
        <time>2017-10-15T15:49:55Z</time>
      </trkpt>
      <trkpt lat="44.13667" lon="6.91427">
        <ele>1433.6</ele>
        <time>2017-10-15T15:50:07Z</time>
      </trkpt>
      <trkpt lat="44.13685" lon="6.91417">
        <ele>1430.12</ele>
        <time>2017-10-15T15:50:27Z</time>
      </trkpt>
      <trkpt lat="44.13703" lon="6.91425">
        <ele>1418.51</ele>
        <time>2017-10-15T15:51:34Z</time>
      </trkpt>
      <trkpt lat="44.13709" lon="6.91402">
        <ele>1398.64</ele>
        <time>2017-10-15T15:52:20Z</time>
      </trkpt>
      <trkpt lat="44.13702" lon="6.91378">
        <ele>1388.86</ele>
        <time>2017-10-15T15:52:34Z</time>
      </trkpt>
      <trkpt lat="44.13699" lon="6.9135">
        <ele>1384.26</ele>
        <time>2017-10-15T15:52:52Z</time>
      </trkpt>
      <trkpt lat="44.13703" lon="6.91326">
        <ele>1385.84</ele>
        <time>2017-10-15T15:53:05Z</time>
      </trkpt>
      <trkpt lat="44.13696" lon="6.91302">
        <ele>1382.76</ele>
        <time>2017-10-15T15:53:18Z</time>
      </trkpt>
      <trkpt lat="44.13711" lon="6.91284">
        <ele>1377.73</ele>
        <time>2017-10-15T15:53:42Z</time>
      </trkpt>
      <trkpt lat="44.13707" lon="6.91258">
        <ele>1378.25</ele>
        <time>2017-10-15T15:54:05Z</time>
      </trkpt>
      <trkpt lat="44.13701" lon="6.91234">
        <ele>1376.79</ele>
        <time>2017-10-15T15:54:18Z</time>
      </trkpt>
      <trkpt lat="44.13698" lon="6.91207">
        <ele>1373.55</ele>
        <time>2017-10-15T15:54:35Z</time>
      </trkpt>
      <trkpt lat="44.13681" lon="6.91193">
        <ele>1374.22</ele>
        <time>2017-10-15T15:54:49Z</time>
      </trkpt>
      <trkpt lat="44.13665" lon="6.91182">
        <ele>1375.64</ele>
        <time>2017-10-15T15:55:03Z</time>
      </trkpt>
      <trkpt lat="44.13648" lon="6.91169">
        <ele>1375.55</ele>
        <time>2017-10-15T15:55:15Z</time>
      </trkpt>
      <trkpt lat="44.13632" lon="6.91158">
        <ele>1372.61</ele>
        <time>2017-10-15T15:55:29Z</time>
      </trkpt>
      <trkpt lat="44.13614" lon="6.91154">
        <ele>1372.64</ele>
        <time>2017-10-15T15:55:43Z</time>
      </trkpt>
      <trkpt lat="44.13594" lon="6.91151">
        <ele>1374.27</ele>
        <time>2017-10-15T15:55:56Z</time>
      </trkpt>
      <trkpt lat="44.13578" lon="6.91141">
        <ele>1370.64</ele>
        <time>2017-10-15T15:56:12Z</time>
      </trkpt>
      <trkpt lat="44.13559" lon="6.91136">
        <ele>1370.35</ele>
        <time>2017-10-15T15:56:29Z</time>
      </trkpt>
      <trkpt lat="44.1354" lon="6.91134">
        <ele>1369.55</ele>
        <time>2017-10-15T15:56:43Z</time>
      </trkpt>
      <trkpt lat="44.13522" lon="6.91132">
        <ele>1368.6</ele>
        <time>2017-10-15T15:56:57Z</time>
      </trkpt>
      <trkpt lat="44.13511" lon="6.91109">
        <ele>1361.28</ele>
        <time>2017-10-15T15:57:12Z</time>
      </trkpt>
      <trkpt lat="44.13511" lon="6.91083">
        <ele>1361.66</ele>
        <time>2017-10-15T15:57:27Z</time>
      </trkpt>
      <trkpt lat="44.13503" lon="6.91061">
        <ele>1360.46</ele>
        <time>2017-10-15T15:57:40Z</time>
      </trkpt>
      <trkpt lat="44.13486" lon="6.91047">
        <ele>1359.62</ele>
        <time>2017-10-15T15:57:57Z</time>
      </trkpt>
      <trkpt lat="44.13468" lon="6.91048">
        <ele>1361.27</ele>
        <time>2017-10-15T15:58:11Z</time>
      </trkpt>
      <trkpt lat="44.1348" lon="6.91029">
        <ele>1360.16</ele>
        <time>2017-10-15T15:58:48Z</time>
      </trkpt>
      <trkpt lat="44.13493" lon="6.91011">
        <ele>1364.58</ele>
        <time>2017-10-15T15:59:04Z</time>
      </trkpt>
      <trkpt lat="44.13501" lon="6.90987">
        <ele>1368.45</ele>
        <time>2017-10-15T15:59:16Z</time>
      </trkpt>
      <trkpt lat="44.13506" lon="6.90962">
        <ele>1368.85</ele>
        <time>2017-10-15T15:59:37Z</time>
      </trkpt>
      <trkpt lat="44.13496" lon="6.90942">
        <ele>1369.52</ele>
        <time>2017-10-15T15:59:52Z</time>
      </trkpt>
      <trkpt lat="44.13483" lon="6.90921">
        <ele>1370.57</ele>
        <time>2017-10-15T16:00:09Z</time>
      </trkpt>
      <trkpt lat="44.13478" lon="6.90897">
        <ele>1372.54</ele>
        <time>2017-10-15T16:00:23Z</time>
      </trkpt>
      <trkpt lat="44.13483" lon="6.90872">
        <ele>1374.55</ele>
        <time>2017-10-15T16:00:40Z</time>
      </trkpt>
      <trkpt lat="44.13491" lon="6.90849">
        <ele>1377.25</ele>
        <time>2017-10-15T16:00:56Z</time>
      </trkpt>
      <trkpt lat="44.13497" lon="6.90825">
        <ele>1379.36</ele>
        <time>2017-10-15T16:01:11Z</time>
      </trkpt>
      <trkpt lat="44.13508" lon="6.90845">
        <ele>1378.25</ele>
        <time>2017-10-15T16:01:34Z</time>
      </trkpt>
      <trkpt lat="44.13508" lon="6.9087">
        <ele>1377.63</ele>
        <time>2017-10-15T16:01:51Z</time>
      </trkpt>
      <trkpt lat="44.13517" lon="6.90893">
        <ele>1382.25</ele>
        <time>2017-10-15T16:02:07Z</time>
      </trkpt>
      <trkpt lat="44.13524" lon="6.9087">
        <ele>1389.23</ele>
        <time>2017-10-15T16:02:48Z</time>
      </trkpt>
      <trkpt lat="44.13535" lon="6.90848">
        <ele>1391.23</ele>
        <time>2017-10-15T16:03:05Z</time>
      </trkpt>
      <trkpt lat="44.13551" lon="6.90835">
        <ele>1395.56</ele>
        <time>2017-10-15T16:03:22Z</time>
      </trkpt>
      <trkpt lat="44.13569" lon="6.90829">
        <ele>1393.88</ele>
        <time>2017-10-15T16:03:39Z</time>
      </trkpt>
      <trkpt lat="44.13584" lon="6.90814">
        <ele>1399.83</ele>
        <time>2017-10-15T16:03:55Z</time>
      </trkpt>
      <trkpt lat="44.13603" lon="6.90812">
        <ele>1402.82</ele>
        <time>2017-10-15T16:04:14Z</time>
      </trkpt>
      <trkpt lat="44.13621" lon="6.90808">
        <ele>1407.24</ele>
        <time>2017-10-15T16:04:31Z</time>
      </trkpt>
      <trkpt lat="44.13639" lon="6.90804">
        <ele>1404.55</ele>
        <time>2017-10-15T16:04:48Z</time>
      </trkpt>
      <trkpt lat="44.13658" lon="6.90803">
        <ele>1408.44</ele>
        <time>2017-10-15T16:05:07Z</time>
      </trkpt>
      <trkpt lat="44.13676" lon="6.90802">
        <ele>1408.66</ele>
        <time>2017-10-15T16:05:24Z</time>
      </trkpt>
      <trkpt lat="44.13694" lon="6.90805">
        <ele>1411.47</ele>
        <time>2017-10-15T16:05:38Z</time>
      </trkpt>
      <trkpt lat="44.13713" lon="6.9081">
        <ele>1409.63</ele>
        <time>2017-10-15T16:05:54Z</time>
      </trkpt>
      <trkpt lat="44.13731" lon="6.90804">
        <ele>1413.54</ele>
        <time>2017-10-15T16:06:10Z</time>
      </trkpt>
      <trkpt lat="44.13749" lon="6.90801">
        <ele>1414.47</ele>
        <time>2017-10-15T16:06:26Z</time>
      </trkpt>
      <trkpt lat="44.13767" lon="6.90793">
        <ele>1420.52</ele>
        <time>2017-10-15T16:06:44Z</time>
      </trkpt>
      <trkpt lat="44.13783" lon="6.9078">
        <ele>1421.55</ele>
        <time>2017-10-15T16:07:03Z</time>
      </trkpt>
      <trkpt lat="44.13798" lon="6.90763">
        <ele>1423.54</ele>
        <time>2017-10-15T16:07:19Z</time>
      </trkpt>
      <trkpt lat="44.13815" lon="6.90754">
        <ele>1423.72</ele>
        <time>2017-10-15T16:07:34Z</time>
      </trkpt>
      <trkpt lat="44.13833" lon="6.90752">
        <ele>1424.55</ele>
        <time>2017-10-15T16:07:52Z</time>
      </trkpt>
      <trkpt lat="44.1385" lon="6.90762">
        <ele>1429.54</ele>
        <time>2017-10-15T16:08:05Z</time>
      </trkpt>
      <trkpt lat="44.13867" lon="6.90771">
        <ele>1430.54</ele>
        <time>2017-10-15T16:08:21Z</time>
      </trkpt>
      <trkpt lat="44.13886" lon="6.90776">
        <ele>1433.55</ele>
        <time>2017-10-15T16:08:37Z</time>
      </trkpt>
      <trkpt lat="44.13904" lon="6.90785">
        <ele>1434.51</ele>
        <time>2017-10-15T16:08:54Z</time>
      </trkpt>
      <trkpt lat="44.13923" lon="6.90783">
        <ele>1436.52</ele>
        <time>2017-10-15T16:09:10Z</time>
      </trkpt>
      <trkpt lat="44.13941" lon="6.90782">
        <ele>1438.53</ele>
        <time>2017-10-15T16:09:26Z</time>
      </trkpt>
      <trkpt lat="44.1396" lon="6.90783">
        <ele>1437.84</ele>
        <time>2017-10-15T16:09:44Z</time>
      </trkpt>
      <trkpt lat="44.13978" lon="6.90775">
        <ele>1438.33</ele>
        <time>2017-10-15T16:10:01Z</time>
      </trkpt>
      <trkpt lat="44.13997" lon="6.9077">
        <ele>1441.54</ele>
        <time>2017-10-15T16:10:20Z</time>
      </trkpt>
      <trkpt lat="44.14016" lon="6.90763">
        <ele>1443.55</ele>
        <time>2017-10-15T16:10:36Z</time>
      </trkpt>
      <trkpt lat="44.14033" lon="6.90755">
        <ele>1444.63</ele>
        <time>2017-10-15T16:10:51Z</time>
      </trkpt>
      <trkpt lat="44.14052" lon="6.90752">
        <ele>1446.57</ele>
        <time>2017-10-15T16:11:11Z</time>
      </trkpt>
      <trkpt lat="44.1407" lon="6.90753">
        <ele>1452.18</ele>
        <time>2017-10-15T16:11:26Z</time>
      </trkpt>
      <trkpt lat="44.14087" lon="6.90739">
        <ele>1451.55</ele>
        <time>2017-10-15T16:11:42Z</time>
      </trkpt>
      <trkpt lat="44.14104" lon="6.90728">
        <ele>1450.47</ele>
        <time>2017-10-15T16:11:59Z</time>
      </trkpt>
      <trkpt lat="44.14122" lon="6.90721">
        <ele>1453.25</ele>
        <time>2017-10-15T16:12:16Z</time>
      </trkpt>
      <trkpt lat="44.14138" lon="6.90711">
        <ele>1456.62</ele>
        <time>2017-10-15T16:12:32Z</time>
      </trkpt>
      <trkpt lat="44.14156" lon="6.90702">
        <ele>1460.22</ele>
        <time>2017-10-15T16:12:49Z</time>
      </trkpt>
      <trkpt lat="44.14165" lon="6.90679">
        <ele>1460.45</ele>
        <time>2017-10-15T16:13:03Z</time>
      </trkpt>
      <trkpt lat="44.14181" lon="6.90668">
        <ele>1465.46</ele>
        <time>2017-10-15T16:13:21Z</time>
      </trkpt>
      <trkpt lat="44.14188" lon="6.90644">
        <ele>1468.32</ele>
        <time>2017-10-15T16:13:39Z</time>
      </trkpt>
      <trkpt lat="44.14185" lon="6.90618">
        <ele>1468.63</ele>
        <time>2017-10-15T16:13:55Z</time>
      </trkpt>
      <trkpt lat="44.14185" lon="6.90592">
        <ele>1466.55</ele>
        <time>2017-10-15T16:14:12Z</time>
      </trkpt>
      <trkpt lat="44.14183" lon="6.90567">
        <ele>1468.57</ele>
        <time>2017-10-15T16:14:30Z</time>
      </trkpt>
      <trkpt lat="44.14187" lon="6.90601">
        <ele>1469.49</ele>
        <time>2017-10-15T16:18:41Z</time>
      </trkpt>
      <trkpt lat="44.14184" lon="6.90633">
        <ele>1469.55</ele>
        <time>2017-10-15T16:18:44Z</time>
      </trkpt>
    </trkseg>
  </trk>
</gpx>